M I D A S
Marine Information and Data Acquisition System
Tripno 1247 of the Zeeleeuw from 2007-04-18 07:13:33 to 2007-04-18 10:57:47
Back to CruiseResearch ActivitiesStationsMapUnderway DataData graphs

EquipmentUnitsComment
TimeDGPSUTC
LatitudeDGPSDM.mWGS84
LongitudeDGPSDM.mWGS84
TemperatureSBE03/SBE38deg celciusITS90
ConductivitySBE21S/mITS90
SalinitySBE21 Practical Salinity Units
ChlorophylAChelsea fluorimeterg/lCalibrated in Aceton
Missing or incorrect values are displayed as -999
Sea surface data collected by the RV Zeeleeuw from 2007-04-18 07:13:55 to 2007-04-18 12:46:31
                                                                                    Next 1000 lines
Time Latitude Longitude Temperature Conductivity Salinity ChlorophylA
2007-04-18 07:14:05 51°13.582 2°56.128 19.9327 0.060151 0.357421 -2.871232
2007-04-18 07:14:10 51°13.583 2°56.125 19.9463 0.060151 0.357421 -2.871232
2007-04-18 07:14:16 51°13.585 2°56.12 19.9488 0.060151 0.357429 -2.871232
2007-04-18 07:14:21 51°13.586 2°56.115 19.9243 0.060151 0.357429 -2.871232
2007-04-18 07:14:26 51°13.588 2°56.11 19.9235 0.060151 0.357429 -2.871232
2007-04-18 07:14:31 51°13.59 2°56.104 19.9019 0.060151 0.357421 -2.871232
2007-04-18 07:14:36 51°13.592 2°56.097 19.9133 0.060151 0.357421 -2.871232
2007-04-18 07:14:41 51°13.594 2°56.09 19.8791 0.060151 0.357413 -2.871232
2007-04-18 07:14:46 51°13.597 2°56.083 19.9179 0.060151 0.357413 -2.871232
2007-04-18 07:14:51 51°13.599 2°56.077 19.909 0.060151 0.35739 -2.871232
2007-04-18 07:14:56 51°13.601 2°56.07 19.9043 0.060151 0.357382 -2.871232
2007-04-18 07:15:00 51°13.603 2°56.064 19.8855 0.060151 0.357366 -2.871232
2007-04-18 07:15:06 51°13.605 2°56.055 19.8797 0.060151 0.357366 -2.871232
2007-04-18 07:15:11 51°13.607 2°56.048 19.9027 0.060151 0.357366 -2.871232
2007-04-18 07:15:16 51°13.609 2°56.041 19.901 0.060151 0.357366 -2.871232
2007-04-18 07:15:21 51°13.611 2°56.034 19.9047 0.060151 0.357374 -2.871232
2007-04-18 07:15:25 51°13.614 2°56.028 19.8955 0.060151 0.35739 -2.871232
2007-04-18 07:15:31 51°13.616 2°56.019 19.8871 0.060151 0.357405 -2.871232
2007-04-18 07:15:36 51°13.618 2°56.012 19.8806 0.060151 0.357405 -2.871232
2007-04-18 07:15:41 51°13.62 2°56.005 19.9072 0.060151 0.357405 -2.871232
2007-04-18 07:15:45 51°13.622 2°55.999 19.918 0.060254 0.358053 -2.871232
2007-04-18 07:15:51 51°13.625 2°55.99 19.9137 0.060151 0.357429 -2.871232
2007-04-18 07:15:56 51°13.628 2°55.983 19.9071 0.060151 0.357444 -2.871232
2007-04-18 07:16:01 51°13.63 2°55.975 19.8994 0.060151 0.35746 -2.871232
2007-04-18 07:16:06 51°13.632 2°55.968 19.8853 0.060151 0.357452 -2.871232
2007-04-18 07:16:10 51°13.634 2°55.962 19.8923 0.060151 0.357452 -2.871232
2007-04-18 07:16:16 51°13.637 2°55.953 19.8899 0.060151 0.35746 -2.871232
2007-04-18 07:16:21 51°13.64 2°55.945 19.8916 0.060151 0.35746 -2.871232
2007-04-18 07:16:26 51°13.642 2°55.937 19.8938 0.060151 0.357452 -2.871232
2007-04-18 07:16:31 51°13.644 2°55.929 19.8946 0.060151 0.357452 -2.871232
2007-04-18 07:16:36 51°13.647 2°55.922 19.8937 0.060151 0.357452 -2.871232
2007-04-18 07:16:41 51°13.65 2°55.914 19.8928 0.060151 0.35746 -2.871232
2007-04-18 07:16:46 51°13.652 2°55.907 19.8918 0.060151 0.35746 -2.871232
2007-04-18 07:16:51 51°13.654 2°55.899 19.8903 0.060151 0.357468 -2.871232
2007-04-18 07:16:55 51°13.656 2°55.893 19.8887 0.060151 0.357476 -2.871232
2007-04-18 07:17:01 51°13.659 2°55.885 19.8869 0.060151 0.357484 -2.871232
2007-04-18 07:17:06 51°13.661 2°55.878 19.881 0.060151 0.357491 -2.871232
2007-04-18 07:17:10 51°13.662 2°55.872 19.8772 0.060151 0.357507 -2.871232
2007-04-18 07:17:15 51°13.664 2°55.865 19.8753 0.060151 0.357507 -2.871232
2007-04-18 07:17:21 51°13.666 2°55.857 19.8773 0.060151 0.357523 -2.871232
2007-04-18 07:17:25 51°13.668 2°55.851 19.8744 0.060151 0.35753 -2.871232
2007-04-18 07:17:30 51°13.669 2°55.845 19.8779 0.060151 0.357554 -2.871232
2007-04-18 07:17:35 51°13.67 2°55.838 19.8773 0.060151 0.357569 -2.871232
2007-04-18 07:17:41 51°13.672 2°55.831 19.8784 0.060151 0.357569 -2.871232
2007-04-18 07:17:46 51°13.673 2°55.825 19.8782 0.060151 0.357585 -2.871232
2007-04-18 07:17:50 51°13.674 2°55.82 19.8784 0.060151 0.357601 -2.871232
2007-04-18 07:17:55 51°13.675 2°55.815 19.8784 0.060151 0.357616 -2.871232
2007-04-18 07:18:01 51°13.676 2°55.809 19.8784 0.060151 0.357632 -2.871232
2007-04-18 07:18:05 51°13.676 2°55.805 19.8785 0.060151 0.357648 -2.871232
2007-04-18 07:18:11 51°13.677 2°55.8 19.8779 0.060151 0.357663 -2.871232
2007-04-18 07:18:16 51°13.678 2°55.797 19.8778 0.060151 0.357663 -2.871232
2007-04-18 07:18:21 51°13.678 2°55.794 19.8762 0.060151 0.357671 -2.871232
2007-04-18 07:18:25 51°13.678 2°55.791 19.8771 0.060151 0.357671 -2.871232
2007-04-18 07:18:30 51°13.679 2°55.789 19.8755 0.060151 0.357687 -2.871232
2007-04-18 07:18:36 51°13.679 2°55.785 19.8758 0.060151 0.357687 -2.871232
2007-04-18 07:18:41 51°13.68 2°55.783 19.8746 0.060151 0.357694 -2.871232
2007-04-18 07:18:45 51°13.68 2°55.781 19.875 0.060151 0.357694 -2.871232
2007-04-18 07:18:50 51°13.68 2°55.778 19.8735 0.060151 0.357702 -2.871232
2007-04-18 07:18:55 51°13.68 2°55.776 19.8737 0.060151 0.357702 -2.871232
2007-04-18 07:19:01 51°13.68 2°55.774 19.8728 0.060151 0.357702 -2.871232
2007-04-18 07:19:06 51°13.68 2°55.772 19.8735 0.060151 0.357702 -2.871232
2007-04-18 07:19:10 51°13.68 2°55.77 19.8723 0.060151 0.357702 -2.871232
2007-04-18 07:19:15 51°13.68 2°55.769 19.8727 0.060151 0.357702 -2.871232
2007-04-18 07:19:21 51°13.68 2°55.766 19.8719 0.060151 0.357702 -2.871232
2007-04-18 07:19:25 51°13.68 2°55.765 19.8726 0.060151 0.357702 -2.871232
2007-04-18 07:19:30 51°13.681 2°55.763 19.8725 0.060151 0.35771 -2.871232
2007-04-18 07:19:35 51°13.681 2°55.762 19.8733 0.060151 0.35771 -2.871232
2007-04-18 07:19:41 51°13.681 2°55.76 19.8728 0.060151 0.35771 -2.871232
2007-04-18 07:19:46 51°13.681 2°55.759 19.874 0.060151 0.35771 -2.871232
2007-04-18 07:19:50 51°13.681 2°55.758 19.8733 0.060151 0.35771 -2.871232
2007-04-18 07:19:55 51°13.681 2°55.757 19.8744 0.060151 0.35771 -2.871232
2007-04-18 07:20:01 51°13.681 2°55.757 19.8743 0.060151 0.357718 -2.871232
2007-04-18 07:20:05 51°13.682 2°55.756 19.8758 0.060151 0.357718 -2.871232
2007-04-18 07:20:10 51°13.682 2°55.756 19.8762 0.060151 0.357718 -2.871232
2007-04-18 07:20:15 51°13.683 2°55.756 19.8773 0.060151 0.357718 -2.871232
2007-04-18 07:20:21 51°13.683 2°55.756 19.8784 0.060151 0.357726 -2.871232
2007-04-18 07:20:25 51°13.684 2°55.757 19.8799 0.060151 0.357733 -2.871232
2007-04-18 07:20:30 51°13.684 2°55.757 19.8797 0.060151 0.357749 -2.871232
2007-04-18 07:20:36 51°13.685 2°55.757 19.8812 0.060151 0.357749 -2.871232
2007-04-18 07:20:41 51°13.686 2°55.758 19.8824 0.060151 0.357765 -2.871232
2007-04-18 07:20:45 51°13.687 2°55.758 19.8825 0.060151 0.357765 -2.871232
2007-04-18 07:20:50 51°13.689 2°55.758 19.8825 0.060151 0.357765 -2.871232
2007-04-18 07:20:55 51°13.69 2°55.759 19.8822 0.060151 0.35778 -2.871232
2007-04-18 07:21:01 51°13.692 2°55.759 19.8827 0.060151 0.357788 -2.871232
2007-04-18 07:21:06 51°13.693 2°55.759 19.8828 0.060151 0.357796 -2.871232
2007-04-18 07:21:10 51°13.694 2°55.759 19.8825 0.060151 0.357796 -2.871232
2007-04-18 07:21:15 51°13.696 2°55.759 19.8829 0.060151 0.357804 -2.871232
2007-04-18 07:21:21 51°13.698 2°55.758 19.8819 0.060048 0.357179 -2.871232
2007-04-18 07:21:25 51°13.699 2°55.758 19.8817 0.060151 0.357819 -2.871232
2007-04-18 07:21:30 51°13.701 2°55.758 19.8822 0.060151 0.357835 -2.871232
2007-04-18 07:21:35 51°13.703 2°55.757 19.8821 0.060151 0.357835 -2.871232
2007-04-18 07:21:40 51°13.705 2°55.756 19.8827 0.060151 0.357835 -2.871232
2007-04-18 07:21:46 51°13.708 2°55.755 19.8832 0.060151 0.357843 -2.871232
2007-04-18 07:21:50 51°13.709 2°55.754 19.8843 0.060151 0.357851 -2.871232
2007-04-18 07:21:55 51°13.712 2°55.752 19.8899 0.060151 0.357859 -2.871232
2007-04-18 07:22:01 51°13.715 2°55.751 19.8956 0.060151 0.357866 -2.871232
2007-04-18 07:22:05 51°13.717 2°55.749 19.9033 0.060151 0.357874 -2.871232
2007-04-18 07:22:10 51°13.72 2°55.747 19.8983 0.060151 0.357874 -2.871232
2007-04-18 07:22:15 51°13.723 2°55.744 19.9011 0.060151 0.357874 -2.871232
2007-04-18 07:22:20 51°13.727 2°55.741 19.894 0.060151 0.35789 -2.871232
2007-04-18 07:22:25 51°13.73 2°55.737 19.8968 0.060151 0.35789 -2.871232
2007-04-18 07:22:31 51°13.735 2°55.731 19.8935 0.060151 0.357898 -2.871232
2007-04-18 07:22:36 51°13.739 2°55.726 19.8911 0.060151 0.357906 -2.871232
2007-04-18 07:22:41 51°13.743 2°55.721 19.8847 0.060151 0.357913 -2.871232
2007-04-18 07:22:45 51°13.747 2°55.717 19.8828 0.060151 0.357913 -2.871232
2007-04-18 07:22:50 51°13.752 2°55.711 19.8715 0.060151 0.357921 -2.871232
2007-04-18 07:22:55 51°13.758 2°55.706 19.8539 0.060151 0.357921 -2.871232
2007-04-18 07:23:01 51°13.764 2°55.698 19.8488 0.060151 0.357921 -2.871232
2007-04-18 07:23:05 51°13.769 2°55.694 19.8503 0.060151 0.357921 -2.871232
2007-04-18 07:23:10 51°13.775 2°55.687 19.8488 0.060151 0.357921 -2.871232
2007-04-18 07:23:16 51°13.783 2°55.68 19.8554 0.060048 0.357289 -2.871232
2007-04-18 07:23:21 51°13.789 2°55.673 19.8474 0.060151 0.357929 -2.871232
2007-04-18 07:23:25 51°13.794 2°55.669 19.8498 0.060151 0.357929 -2.871232
2007-04-18 07:23:30 51°13.801 2°55.663 19.8374 0.060151 0.357929 -2.871232
2007-04-18 07:23:35 51°13.808 2°55.657 19.8513 0.060151 0.357929 -2.871232
2007-04-18 07:23:41 51°13.817 2°55.65 19.8585 0.060151 0.357937 -2.871232
2007-04-18 07:23:45 51°13.822 2°55.645 19.8615 0.060151 0.357937 -2.871232
2007-04-18 07:23:50 51°13.829 2°55.639 19.8597 0.060151 0.357937 -2.871232
2007-04-18 07:23:55 51°13.837 2°55.633 19.8621 0.060151 0.357937 -2.871232
2007-04-18 07:24:01 51°13.846 2°55.625 19.8606 0.060151 0.357937 -2.871232
2007-04-18 07:24:06 51°13.854 2°55.619 19.8627 0.060048 0.357296 -2.871232
2007-04-18 07:24:11 51°13.861 2°55.612 19.8638 0.060151 0.357929 -2.871232
2007-04-18 07:24:15 51°13.868 2°55.607 19.8655 0.060151 0.357929 -2.871232
2007-04-18 07:24:21 51°13.877 2°55.599 19.8671 0.060151 0.357937 -2.871232
2007-04-18 07:24:26 51°13.884 2°55.592 19.8674 0.060151 0.357929 -2.871232
2007-04-18 07:24:31 51°13.892 2°55.585 19.8685 0.060151 0.357929 -2.871232
2007-04-18 07:24:36 51°13.9 2°55.579 19.8671 0.060151 0.357929 -2.871232
2007-04-18 07:24:41 51°13.909 2°55.572 19.8688 0.060151 0.357929 -2.871232
2007-04-18 07:24:46 51°13.917 2°55.566 19.869 0.060151 0.357929 -2.871232
2007-04-18 07:24:51 51°13.925 2°55.559 19.8721 0.060151 0.357929 -2.871232
2007-04-18 07:24:56 51°13.933 2°55.552 19.8583 0.060151 0.357929 -2.871232
2007-04-18 07:25:01 51°13.942 2°55.546 19.8573 0.060048 0.357296 -2.871232
2007-04-18 07:25:05 51°13.949 2°55.541 19.8578 0.060151 0.357929 -2.871232
2007-04-18 07:25:11 51°13.959 2°55.534 19.8589 0.060151 0.357929 -2.871232
2007-04-18 07:25:16 51°13.968 2°55.528 19.8587 0.060151 0.357929 -2.871232
2007-04-18 07:25:21 51°13.977 2°55.523 19.8516 0.060151 0.357929 -2.871232
2007-04-18 07:25:26 51°13.985 2°55.517 19.8535 0.060151 0.357929 -2.871232
2007-04-18 07:25:30 51°13.992 2°55.512 19.8591 0.060151 0.357929 -2.871232
2007-04-18 07:25:35 51°14.001 2°55.507 19.8627 0.060151 0.357937 -2.871232
2007-04-18 07:25:41 51°14.012 2°55.5 19.8634 0.060048 0.357304 -2.871232
2007-04-18 07:25:46 51°14.021 2°55.495 19.8614 0.060048 0.357304 -2.871232
2007-04-18 07:25:50 51°14.028 2°55.492 19.8626 0.060048 0.357312 -2.871232
2007-04-18 07:25:55 51°14.037 2°55.488 19.8644 0.060151 0.357945 -2.871232
2007-04-18 07:26:01 51°14.048 2°55.482 19.8882 0.060048 0.357312 -2.871232
2007-04-18 07:26:06 51°14.057 2°55.478 19.9139 0.060151 0.357945 -2.871232
2007-04-18 07:26:10 51°14.064 2°55.474 19.9054 0.060151 0.357945 -2.871232
2007-04-18 07:26:15 51°14.073 2°55.469 19.8959 0.060151 0.357945 -2.871232
2007-04-18 07:26:21 51°14.084 2°55.464 19.8885 0.060151 0.357945 -2.871232
2007-04-18 07:26:26 51°14.094 2°55.459 19.8812 0.060048 0.357312 -2.871232
2007-04-18 07:26:30 51°14.101 2°55.456 19.8935 0.060151 0.357945 -2.871232
2007-04-18 07:26:36 51°14.112 2°55.451 19.8699 0.060151 0.357945 -2.871232
2007-04-18 07:26:41 51°14.121 2°55.446 19.9049 0.060151 0.357945 -2.871232
2007-04-18 07:26:45 51°14.128 2°55.442 19.9682 0.060151 0.357945 -2.871232
2007-04-18 07:26:51 51°14.137 2°55.434 19.9373 0.060151 0.357945 -2.871232
2007-04-18 07:26:56 51°14.146 2°55.429 19.9262 0.060151 0.357945 -2.871232
2007-04-18 07:27:01 51°14.154 2°55.423 19.8979 0.060048 0.357312 -2.871232
2007-04-18 07:27:06 51°14.162 2°55.417 19.9112 0.060048 0.357312 -2.871232
2007-04-18 07:27:11 51°14.17 2°55.411 19.9119 0.060048 0.357312 -2.871232
2007-04-18 07:27:15 51°14.176 2°55.405 19.9208 0.060048 0.357312 -2.871232
2007-04-18 07:27:21 51°14.185 2°55.396 19.9224 0.060151 0.357945 -2.871232
2007-04-18 07:27:25 51°14.191 2°55.39 19.9221 0.060151 0.357945 -2.871232
2007-04-18 07:27:30 51°14.199 2°55.383 19.9203 0.060151 0.357945 -2.871232
2007-04-18 07:27:36 51°14.208 2°55.373 19.9064 0.060151 0.357945 -2.871232
2007-04-18 07:27:41 51°14.216 2°55.365 19.9034 0.060048 0.35732 -2.871232
2007-04-18 07:27:45 51°14.222 2°55.358 19.8964 0.060048 0.35732 -2.871232
2007-04-18 07:27:50 51°14.229 2°55.349 19.9073 0.060151 0.357953 -2.871232
2007-04-18 07:27:56 51°14.237 2°55.339 19.9284 0.060151 0.357953 -2.871232
2007-04-18 07:28:01 51°14.243 2°55.33 19.9607 0.060151 0.357953 -2.871232
2007-04-18 07:28:06 51°14.249 2°55.32 19.9542 0.060151 0.357953 -2.871232
2007-04-18 07:28:10 51°14.254 2°55.312 19.9376 0.060151 0.357953 -2.871232
2007-04-18 07:28:15 51°14.26 2°55.301 19.9265 0.060048 0.357328 -2.871232
2007-04-18 07:28:21 51°14.267 2°55.288 19.9188 0.060048 0.357304 -2.871232
2007-04-18 07:28:26 51°14.273 2°55.276 19.9119 0.060151 0.357866 -2.871232
2007-04-18 07:28:30 51°14.277 2°55.267 19.906 0.060151 0.357882 -2.871232
2007-04-18 07:28:35 51°14.283 2°55.254 19.9038 0.060151 0.357898 -2.871232
2007-04-18 07:28:41 51°14.291 2°55.238 19.9024 0.060151 0.357937 -2.871232
2007-04-18 07:28:46 51°14.297 2°55.223 19.8995 0.060151 0.357937 -2.871232
2007-04-18 07:28:51 51°14.304 2°55.208 19.8266 0.060151 0.357953 -2.871232
2007-04-18 07:28:55 51°14.31 2°55.196 19.86 0.060048 0.357328 -2.871232
2007-04-18 07:29:01 51°14.319 2°55.176 19.8606 0.060151 0.357968 -2.871232
2007-04-18 07:29:05 51°14.325 2°55.162 19.8296 0.060048 0.357335 -2.871232
2007-04-18 07:29:11 51°14.334 2°55.141 19.8817 0.060048 0.357335 -2.871232
2007-04-18 07:29:15 51°14.34 2°55.126 19.8961 0.060048 0.357335 -2.871232
2007-04-18 07:29:21 51°14.348 2°55.102 19.8651 0.060151 0.357968 -2.871232
2007-04-18 07:29:25 51°14.354 2°55.086 19.7659 0.060048 0.357343 -2.871232
2007-04-18 07:29:31 51°14.363 2°55.062 19.7797 0.060151 0.357976 -2.871232
2007-04-18 07:29:36 51°14.37 2°55.042 19.8209 0.060048 0.357343 -2.871232
2007-04-18 07:29:41 51°14.377 2°55.021 19.6046 0.060048 0.357343 -2.871232
2007-04-18 07:29:45 51°14.383 2°55.004 18.8856 0.060048 0.357343 -2.871232
2007-04-18 07:29:50 51°14.39 2°54.982 18.9246 0.060151 0.357968 -2.871232
2007-04-18 07:29:56 51°14.397 2°54.956 19.1519 0.060151 0.357968 -2.871232
2007-04-18 07:30:01 51°14.403 2°54.934 19.2595 0.060151 0.357968 -2.871232
2007-04-18 07:30:05 51°14.407 2°54.915 19.2217 0.060151 0.357968 -2.871232
2007-04-18 07:30:10 51°14.411 2°54.891 19.2889 0.060151 0.357968 -2.871232
2007-04-18 07:30:16 51°14.414 2°54.862 19.3235 0.060151 0.357968 -2.871232
2007-04-18 07:30:21 51°14.417 2°54.837 19.3153 0.060151 0.357968 -2.871232
2007-04-18 07:30:26 51°14.42 2°54.813 19.3392 0.060151 0.35796 -2.871232
2007-04-18 07:30:30 51°14.421 2°54.793 19.3732 0.060151 0.35796 -2.871232
2007-04-18 07:30:35 51°14.423 2°54.767 19.3658 0.060151 0.35796 -2.871232
2007-04-18 07:30:41 51°14.425 2°54.737 19.395 0.060048 0.357335 -2.871232
2007-04-18 07:30:46 51°14.425 2°54.711 19.4198 0.060048 0.357335 -2.871232
2007-04-18 07:30:50 51°14.426 2°54.69 19.4177 0.060151 0.35796 -2.871232
2007-04-18 07:30:55 51°14.425 2°54.664 19.3992 0.060048 0.357328 -2.871232
2007-04-18 07:31:01 51°14.425 2°54.633 19.3998 0.060151 0.35796 -2.871232
2007-04-18 07:31:06 51°14.424 2°54.606 19.3732 0.060048 0.357335 -2.871232
2007-04-18 07:31:11 51°14.423 2°54.58 19.419 0.060048 0.357335 -2.871232
2007-04-18 07:31:15 51°14.422 2°54.559 19.4099 0.060048 0.357335 -2.871232
2007-04-18 07:31:21 51°14.419 2°54.527 19.3875 0.060048 0.357335 -2.871232
2007-04-18 07:31:25 51°14.417 2°54.505 19.3905 0.060151 0.357968 -2.871232
2007-04-18 07:31:30 51°14.414 2°54.478 19.4085 0.060048 0.357335 -2.871232
2007-04-18 07:31:35 51°14.41 2°54.45 19.417 0.060048 0.357328 -2.871232
2007-04-18 07:31:41 51°14.405 2°54.417 19.4082 0.060048 0.357328 -2.871232
2007-04-18 07:31:45 51°14.4 2°54.395 19.3967 0.060048 0.357328 -2.871232
2007-04-18 07:31:50 51°14.394 2°54.368 19.3883 0.060151 0.35796 -2.871232
2007-04-18 07:31:56 51°14.386 2°54.336 19.4091 0.060048 0.35732 -2.871232
2007-04-18 07:32:01 51°14.378 2°54.31 19.396 0.060151 0.35796 -2.871232
2007-04-18 07:32:05 51°14.372 2°54.289 19.3962 0.060151 0.357953 -2.871232
2007-04-18 07:32:10 51°14.364 2°54.263 19.4204 0.060151 0.357953 -2.871232
2007-04-18 07:32:16 51°14.353 2°54.233 19.4164 0.060048 0.357328 -2.871232
2007-04-18 07:32:21 51°14.343 2°54.208 19.4101 0.060151 0.35796 -2.871232
2007-04-18 07:32:26 51°14.333 2°54.184 19.3693 0.060048 0.357328 -2.871232
2007-04-18 07:32:30 51°14.325 2°54.164 19.3793 0.060048 0.357328 -2.871232
2007-04-18 07:32:35 51°14.314 2°54.139 19.3466 0.060048 0.35732 -2.871232
2007-04-18 07:32:41 51°14.302 2°54.109 19.4085 0.060151 0.35796 -2.871232
2007-04-18 07:32:46 51°14.292 2°54.084 19.3874 0.060151 0.35796 -2.871232
2007-04-18 07:32:50 51°14.284 2°54.064 19.3796 0.060151 0.35796 -2.871232
2007-04-18 07:32:55 51°14.274 2°54.039 19.32 0.060048 0.35732 -2.871232
2007-04-18 07:33:01 51°14.263 2°54.008 19.2799 0.060151 0.357953 -2.871232
2007-04-18 07:33:06 51°14.254 2°53.981 19.3172 0.060151 0.357953 -2.871232
2007-04-18 07:33:10 51°14.248 2°53.959 19.3229 0.060151 0.357945 -2.871232
2007-04-18 07:33:15 51°14.241 2°53.931 19.3985 0.060151 0.357945 -2.871232
2007-04-18 07:33:21 51°14.233 2°53.898 19.3705 0.060151 0.357945 -2.871232
2007-04-18 07:33:26 51°14.227 2°53.869 19.3842 0.060151 0.357945 -2.871232
2007-04-18 07:33:31 51°14.223 2°53.84 19.4241 0.060048 0.357312 -2.871232
2007-04-18 07:33:35 51°14.219 2°53.817 19.4156 0.060151 0.357945 -2.871232
2007-04-18 07:33:41 51°14.214 2°53.782 19.4023 0.060151 0.357945 -2.871232
2007-04-18 07:33:46 51°14.211 2°53.752 19.473 0.060151 0.357937 -2.871232
2007-04-18 07:33:51 51°14.207 2°53.723 19.4339 0.060151 0.357937 -2.871232
2007-04-18 07:33:56 51°14.204 2°53.693 19.4508 0.060048 0.357304 -2.871232
2007-04-18 07:34:01 51°14.201 2°53.663 19.4549 0.060048 0.357304 -2.871232
2007-04-18 07:34:05 51°14.198 2°53.639 19.454 0.060048 0.357304 -2.871232
2007-04-18 07:34:11 51°14.193 2°53.603 19.4617 0.060048 0.357304 -2.871232
2007-04-18 07:34:16 51°14.187 2°53.573 19.4763 0.060048 0.357304 -2.871232
2007-04-18 07:34:21 51°14.182 2°53.544 19.4696 0.060151 0.357945 -2.871232
2007-04-18 07:34:25 51°14.176 2°53.521 19.4625 0.060151 0.357945 -2.871232
2007-04-18 07:34:30 51°14.168 2°53.493 19.4392 0.060151 0.357945 -2.871232
2007-04-18 07:34:36 51°14.158 2°53.459 19.4294 0.060048 0.357312 -2.871232
2007-04-18 07:34:41 51°14.149 2°53.431 19.4162 0.060048 0.35732 -2.871232
2007-04-18 07:34:45 51°14.142 2°53.409 19.4231 0.060048 0.35732 -2.871232
2007-04-18 07:34:50 51°14.133 2°53.381 19.4258 0.060048 0.35732 -2.871232
2007-04-18 07:34:55 51°14.124 2°53.353 19.4038 0.060048 0.35732 -2.871232
2007-04-18 07:35:01 51°14.113 2°53.32 19.3909 0.060151 0.357968 -2.871232
2007-04-18 07:35:06 51°14.104 2°53.291 19.3958 0.060048 0.357343 -2.871232
2007-04-18 07:35:10 51°14.097 2°53.269 19.3701 0.060048 0.357343 -2.871232
2007-04-18 07:35:15 51°14.089 2°53.24 19.4059 0.060151 0.357984 -2.871232
2007-04-18 07:35:20 51°14.081 2°53.211 19.3795 0.060151 0.357984 -2.871232
2007-04-18 07:35:26 51°14.072 2°53.175 19.4186 0.060048 0.357367 -2.871232
2007-04-18 07:35:30 51°14.066 2°53.152 19.4135 0.060048 0.357398 -2.871232
2007-04-18 07:35:35 51°14.058 2°53.122 19.4492 0.060048 0.357437 -2.871232
2007-04-18 07:35:40 51°14.051 2°53.093 19.4362 0.060048 0.357437 -2.871232
2007-04-18 07:35:46 51°14.041 2°53.058 19.4522 0.060048 0.357476 -2.871232
2007-04-18 07:35:51 51°14.033 2°53.029 19.4631 0.060048 0.357492 -2.871232
2007-04-18 07:35:55 51°14.026 2°53.006 19.4608 0.060048 0.357507 -2.871232
2007-04-18 07:36:01 51°14.016 2°52.972 19.4712 0.060048 0.357515 -2.871232
2007-04-18 07:36:05 51°14.008 2°52.95 19.4401 0.060048 0.357523 -2.871232
2007-04-18 07:36:11 51°13.996 2°52.916 19.4626 0.060048 0.357523 -2.871232
2007-04-18 07:36:15 51°13.988 2°52.895 19.4476 0.060048 0.357523 -2.871232
2007-04-18 07:36:21 51°13.975 2°52.862 19.416 0.060048 0.357523 -2.871232
2007-04-18 07:36:25 51°13.967 2°52.84 19.453 0.060048 0.357515 -2.871232
2007-04-18 07:36:30 51°13.957 2°52.813 19.3674 0.060048 0.357507 -2.871232
2007-04-18 07:36:36 51°13.945 2°52.779 19.4131 0.060048 0.357476 -2.871232
2007-04-18 07:36:41 51°13.935 2°52.751 19.4162 0.060048 0.357453 -2.871232
2007-04-18 07:36:45 51°13.928 2°52.728 19.4295 0.060048 0.357453 -2.871232
2007-04-18 07:36:50 51°13.919 2°52.7 19.4322 0.060048 0.357429 -2.871232
2007-04-18 07:36:55 51°13.91 2°52.671 19.4338 0.060048 0.357421 -2.871232
2007-04-18 07:37:01 51°13.9 2°52.636 19.4599 0.060048 0.357406 -2.871232
2007-04-18 07:37:05 51°13.893 2°52.613 19.468 0.060048 0.357398 -2.871232
2007-04-18 07:37:10 51°13.884 2°52.585 19.4705 0.060048 0.357398 -2.871232
2007-04-18 07:37:15 51°13.875 2°52.556 19.476 0.060048 0.35739 -2.871232
2007-04-18 07:37:21 51°13.863 2°52.523 19.4367 0.060048 0.357382 -2.871232
2007-04-18 07:37:26 51°13.853 2°52.495 19.4389 0.060048 0.357382 -2.871232
2007-04-18 07:37:30 51°13.844 2°52.473 19.4435 0.060048 0.357375 -2.871232
2007-04-18 07:37:35 51°13.834 2°52.446 19.4731 0.060048 0.357375 -2.871232
2007-04-18 07:37:40 51°13.823 2°52.42 19.4126 0.060048 0.357375 -2.871232
2007-04-18 07:37:46 51°13.81 2°52.387 19.4659 0.060048 0.357367 -2.871232
2007-04-18 07:37:51 51°13.799 2°52.36 19.3703 0.060048 0.357359 -2.871232
2007-04-18 07:37:55 51°13.791 2°52.337 19.4519 0.060048 0.357359 -2.871232
2007-04-18 07:38:01 51°13.779 2°52.305 19.4266 0.060048 0.357351 -2.871232
2007-04-18 07:38:06 51°13.769 2°52.277 19.4445 0.060048 0.357351 -2.871232
2007-04-18 07:38:11 51°13.759 2°52.249 19.439 0.060048 0.357343 -2.871232
2007-04-18 07:38:15 51°13.751 2°52.226 19.4774 0.060048 0.357343 -2.871232
2007-04-18 07:38:21 51°13.739 2°52.193 19.435 0.060048 0.357335 -2.871232
2007-04-18 07:38:25 51°13.731 2°52.171 19.4727 0.060048 0.357335 -2.871232
2007-04-18 07:38:31 51°13.719 2°52.138 19.4542 0.060048 0.357335 -2.871232
2007-04-18 07:38:36 51°13.708 2°52.11 19.4684 0.060048 0.357335 -2.871232
2007-04-18 07:38:41 51°13.698 2°52.083 19.4662 0.060048 0.357351 -2.871232
2007-04-18 07:38:45 51°13.689 2°52.061 19.4568 0.060048 0.357351 -2.871232
2007-04-18 07:38:51 51°13.676 2°52.029 19.4622 0.060048 0.357359 -2.871232
2007-04-18 07:38:56 51°13.665 2°52.002 19.4457 0.060048 0.357367 -2.871232
2007-04-18 07:39:01 51°13.654 2°51.975 19.4486 0.060048 0.357367 -2.871232
2007-04-18 07:39:05 51°13.645 2°51.954 19.4742 0.060048 0.357351 -2.871232
2007-04-18 07:39:10 51°13.634 2°51.927 19.4724 0.060048 0.357343 -2.871232
2007-04-18 07:39:16 51°13.621 2°51.895 19.4471 0.060048 0.357343 -2.871232
2007-04-18 07:39:21 51°13.61 2°51.868 19.4757 0.060048 0.357335 -2.871232
2007-04-18 07:39:26 51°13.599 2°51.841 19.4808 0.060048 0.357328 -2.871232
2007-04-18 07:39:30 51°13.591 2°51.819 19.446 0.060048 0.35732 -2.871232
2007-04-18 07:39:35 51°13.58 2°51.791 19.439 0.060048 0.357312 -2.871232
2007-04-18 07:39:41 51°13.568 2°51.757 19.4734 0.060048 0.357304 -2.871232
2007-04-18 07:39:46 51°13.557 2°51.73 19.4517 0.060048 0.357304 -2.871232
2007-04-18 07:39:50 51°13.549 2°51.707 19.4876 0.060048 0.357304 -2.871232
2007-04-18 07:39:55 51°13.538 2°51.68 19.4764 0.060048 0.357296 -2.871232
2007-04-18 07:40:00 51°13.527 2°51.653 19.4939 0.060048 0.357289 -2.871232
2007-04-18 07:40:06 51°13.514 2°51.62 19.4697 0.060048 0.357289 -2.871232
2007-04-18 07:40:11 51°13.503 2°51.592 19.4916 0.060048 0.357281 -2.871232
2007-04-18 07:40:15 51°13.495 2°51.571 19.6461 0.060048 0.357281 -2.871232
2007-04-18 07:40:21 51°13.481 2°51.538 19.5995 0.060048 0.357273 -2.871232
2007-04-18 07:40:26 51°13.471 2°51.51 19.5669 0.060048 0.357273 -2.871232
2007-04-18 07:40:31 51°13.46 2°51.483 19.5512 0.060048 0.357265 -2.871232
2007-04-18 07:40:35 51°13.451 2°51.461 19.5437 0.060048 0.357257 -2.871232
2007-04-18 07:40:41 51°13.439 2°51.428 19.5131 0.060048 0.357257 -2.871232
2007-04-18 07:40:45 51°13.43 2°51.406 19.5343 0.060048 0.35725 -2.871232
2007-04-18 07:40:51 51°13.418 2°51.373 19.5174 0.060048 0.357234 -2.871232
2007-04-18 07:40:56 51°13.407 2°51.345 19.5175 0.060048 0.357226 -2.871232
2007-04-18 07:41:01 51°13.397 2°51.317 19.5123 0.060048 0.357218 -2.871232
2007-04-18 07:41:05 51°13.388 2°51.295 19.5074 0.060048 0.35721 -2.871232
2007-04-18 07:41:10 51°13.378 2°51.267 19.5251 0.060048 0.35721 -2.871232
2007-04-18 07:41:16 51°13.365 2°51.234 19.5126 0.060048 0.357203 -2.871232
2007-04-18 07:41:21 51°13.354 2°51.207 19.5205 0.060048 0.357195 -2.871232
2007-04-18 07:41:26 51°13.343 2°51.179 19.5104 0.060048 0.357187 -2.871232
2007-04-18 07:41:30 51°13.335 2°51.157 19.5131 0.060048 0.357187 -2.871232
2007-04-18 07:41:36 51°13.322 2°51.124 19.5132 0.060151 0.357773 -2.871232
2007-04-18 07:41:41 51°13.311 2°51.096 19.5195 0.060048 0.357101 -2.871232
2007-04-18 07:41:46 51°13.301 2°51.069 19.5139 0.060048 0.357101 -2.871232
2007-04-18 07:41:50 51°13.292 2°51.048 19.5228 0.060048 0.357109 -2.871232
2007-04-18 07:41:55 51°13.282 2°51.02 19.52 0.060048 0.357132 -2.871232
2007-04-18 07:42:01 51°13.269 2°50.987 19.5197 0.060048 0.357148 -2.871232
2007-04-18 07:42:06 51°13.258 2°50.958 19.5281 0.060048 0.357156 -2.871232
2007-04-18 07:42:11 51°13.247 2°50.931 19.5209 0.060048 0.357148 -2.871232
2007-04-18 07:42:15 51°13.238 2°50.909 19.5226 0.060048 0.357148 -2.871232
2007-04-18 07:42:21 51°13.225 2°50.876 19.5266 0.060048 0.357156 -2.871232
2007-04-18 07:42:26 51°13.214 2°50.848 19.5277 0.060048 0.357156 -2.871232
2007-04-18 07:42:31 51°13.203 2°50.821 19.5288 0.060048 0.357156 -2.871232
2007-04-18 07:42:35 51°13.195 2°50.799 19.5255 0.060048 0.357156 -2.871232
2007-04-18 07:42:41 51°13.182 2°50.765 19.5415 0.060048 0.357156 -2.871232
2007-04-18 07:42:45 51°13.173 2°50.743 19.5263 0.060048 0.357156 -2.871232
2007-04-18 07:42:50 51°13.162 2°50.715 19.5336 0.060048 0.357164 -2.871232
2007-04-18 07:42:56 51°13.149 2°50.682 19.5289 0.060048 0.357179 -2.871232
2007-04-18 07:43:01 51°13.139 2°50.655 19.5385 0.060048 0.357195 -2.871232
2007-04-18 07:43:05 51°13.13 2°50.633 19.5315 0.060048 0.357187 -2.871232
2007-04-18 07:43:11 51°13.117 2°50.599 19.5411 0.060048 0.357179 -2.871232
2007-04-18 07:43:16 51°13.106 2°50.571 19.53 0.060048 0.357179 -2.871232
2007-04-18 07:43:21 51°13.095 2°50.543 19.5414 0.060048 0.357156 -2.871232
2007-04-18 07:43:25 51°13.086 2°50.52 19.5387 0.060048 0.35714 -2.871232
2007-04-18 07:43:30 51°13.076 2°50.49 19.5488 0.060048 0.357132 -2.871232
2007-04-18 07:43:35 51°13.065 2°50.463 19.5405 0.060048 0.357117 -2.871232
2007-04-18 07:43:41 51°13.052 2°50.43 19.5471 0.060048 0.357101 -2.871232
2007-04-18 07:43:46 51°13.041 2°50.402 19.5536 0.060048 0.357101 -2.871232
2007-04-18 07:43:50 51°13.033 2°50.38 19.5475 0.060048 0.357086 -2.871232
2007-04-18 07:43:56 51°13.02 2°50.347 19.5492 0.060048 0.357078 -2.871232
2007-04-18 07:44:01 51°13.008 2°50.319 19.5478 0.060048 0.357054 -2.871232
2007-04-18 07:44:06 51°12.997 2°50.292 19.5468 0.060048 0.357047 -2.871232
2007-04-18 07:44:10 51°12.988 2°50.269 19.5426 0.060048 0.357031 -2.871232
2007-04-18 07:44:15 51°12.977 2°50.241 19.5552 0.060048 0.357031 -2.871232
2007-04-18 07:44:21 51°12.963 2°50.208 19.551 0.060048 0.357008 -2.871232
2007-04-18 07:44:26 51°12.952 2°50.18 19.5582 0.060048 0.356992 -2.871232
2007-04-18 07:44:31 51°12.941 2°50.152 19.5498 0.060048 0.356984 -2.871232
2007-04-18 07:44:35 51°12.932 2°50.13 19.554 0.060048 0.356961 -2.871232
2007-04-18 07:44:41 51°12.919 2°50.096 19.5544 0.060048 0.356961 -2.871232
2007-04-18 07:44:46 51°12.908 2°50.068 19.5552 0.060151 0.357577 -2.871232
2007-04-18 07:44:50 51°12.899 2°50.046 19.5604 0.060048 0.356937 -2.871232
2007-04-18 07:44:55 51°12.888 2°50.018 19.5534 0.060048 0.356922 -2.871232
2007-04-18 07:45:01 51°12.875 2°49.984 19.5614 0.060048 0.356914 -2.871232
2007-04-18 07:45:06 51°12.863 2°49.956 19.5632 0.060048 0.356898 -2.871232
2007-04-18 07:45:11 51°12.852 2°49.928 19.5609 0.060048 0.356883 -2.871232
2007-04-18 07:45:16 51°12.841 2°49.901 19.5615 0.060048 0.356883 -2.871232
2007-04-18 07:45:21 51°12.83 2°49.873 19.5704 0.060048 0.356867 -2.871232
2007-04-18 07:45:25 51°12.821 2°49.851 19.5674 0.060048 0.356852 -2.871232
2007-04-18 07:45:31 51°12.808 2°49.817 19.5542 0.060151 0.357476 -2.871232
2007-04-18 07:45:35 51°12.8 2°49.795 19.58 0.060151 0.35746 -2.871232
2007-04-18 07:45:41 51°12.786 2°49.761 19.5607 0.060151 0.357452 -2.871232
2007-04-18 07:45:46 51°12.776 2°49.733 19.5775 0.060151 0.357452 -2.871232
2007-04-18 07:45:50 51°12.767 2°49.71 19.5639 0.060151 0.357437 -2.871232
2007-04-18 07:45:56 51°12.754 2°49.676 19.5678 0.060151 0.357429 -2.871232
2007-04-18 07:46:01 51°12.743 2°49.648 19.5679 0.060151 0.357413 -2.871232
2007-04-18 07:46:06 51°12.732 2°49.619 19.5674 0.060048 0.356766 -2.871232
2007-04-18 07:46:10 51°12.724 2°49.596 19.5723 0.060048 0.356758 -2.871232
2007-04-18 07:46:16 51°12.713 2°49.561 19.5741 0.060048 0.356758 -2.871232
2007-04-18 07:46:21 51°12.703 2°49.532 19.5825 0.060048 0.35675 -2.871232
2007-04-18 07:46:25 51°12.696 2°49.508 19.5772 0.060151 0.357366 -2.871232
2007-04-18 07:46:31 51°12.685 2°49.473 19.5848 0.060048 0.356727 -2.871232
2007-04-18 07:46:35 51°12.677 2°49.449 19.5881 0.060048 0.356712 -2.871232
2007-04-18 07:46:41 51°12.666 2°49.414 19.5883 0.060048 0.356704 -2.871232
2007-04-18 07:46:46 51°12.657 2°49.385 19.5892 0.060048 0.356704 -2.871232
2007-04-18 07:46:50 51°12.649 2°49.362 19.5881 0.060151 0.357327 -2.871232
2007-04-18 07:46:55 51°12.639 2°49.333 19.5894 0.060048 0.356688 -2.871232
2007-04-18 07:47:01 51°12.627 2°49.299 19.5868 0.060151 0.357327 -2.871232
2007-04-18 07:47:06 51°12.616 2°49.271 19.584 0.060151 0.357327 -2.871232
2007-04-18 07:47:10 51°12.608 2°49.248 19.5955 0.060151 0.35732 -2.871232
2007-04-18 07:47:16 51°12.595 2°49.215 19.5689 0.060151 0.35732 -2.871232
2007-04-18 07:47:21 51°12.585 2°49.187 19.5995 0.060151 0.357304 -2.871232
2007-04-18 07:47:25 51°12.576 2°49.165 19.5828 0.060151 0.357288 -2.871232
2007-04-18 07:47:31 51°12.564 2°49.131 19.5933 0.060151 0.357288 -2.871232
2007-04-18 07:47:35 51°12.555 2°49.108 19.5801 0.060151 0.357273 -2.871232
2007-04-18 07:47:41 51°12.543 2°49.074 19.5854 0.060048 0.356634 -2.871232
2007-04-18 07:47:45 51°12.535 2°49.051 19.603 0.060048 0.356634 -2.871232
2007-04-18 07:47:50 51°12.524 2°49.023 19.5881 0.060151 0.357257 -2.871232
2007-04-18 07:47:56 51°12.512 2°48.989 19.6051 0.060151 0.357257 -2.871232
2007-04-18 07:48:01 51°12.501 2°48.961 19.5836 0.060151 0.35725 -2.871232
2007-04-18 07:48:06 51°12.491 2°48.932 19.6051 0.060151 0.357242 -2.871232
2007-04-18 07:48:10 51°12.483 2°48.91 19.5849 0.060151 0.357242 -2.871232
2007-04-18 07:48:16 51°12.47 2°48.876 19.5983 0.060151 0.357242 -2.871232
2007-04-18 07:48:21 51°12.46 2°48.848 19.5894 0.060151 0.357242 -2.871232
2007-04-18 07:48:25 51°12.452 2°48.825 19.6117 0.060151 0.357234 -2.871232
2007-04-18 07:48:30 51°12.442 2°48.797 19.6058 0.060151 0.357234 -2.871232
2007-04-18 07:48:35 51°12.431 2°48.769 19.5998 0.060151 0.357226 -2.871232
2007-04-18 07:48:41 51°12.419 2°48.735 19.5965 0.060048 0.356595 -2.871232
2007-04-18 07:48:46 51°12.409 2°48.707 19.6065 0.060048 0.356595 -2.871232
2007-04-18 07:48:50 51°12.401 2°48.684 19.6093 0.060151 0.357226 -2.871232
2007-04-18 07:48:55 51°12.39 2°48.656 19.607 0.060151 0.357211 -2.871232
2007-04-18 07:49:01 51°12.378 2°48.622 19.6134 0.060151 0.357211 -2.871232
2007-04-18 07:49:06 51°12.368 2°48.594 19.604 0.060151 0.357203 -2.871232
2007-04-18 07:49:10 51°12.36 2°48.572 19.6094 0.060151 0.357203 -2.871232
2007-04-18 07:49:15 51°12.35 2°48.543 19.6159 0.060151 0.357203 -2.871232
2007-04-18 07:49:20 51°12.34 2°48.515 19.598 0.060048 0.356564 -2.871232
2007-04-18 07:49:26 51°12.328 2°48.481 19.6252 0.060048 0.356556 -2.871232
2007-04-18 07:49:31 51°12.318 2°48.453 19.6118 0.060048 0.356556 -2.871232
2007-04-18 07:49:35 51°12.31 2°48.43 19.6225 0.060151 0.357187 -2.871232
2007-04-18 07:49:41 51°12.297 2°48.397 19.6187 0.060048 0.356564 -2.871232
2007-04-18 07:49:45 51°12.289 2°48.374 19.6171 0.060048 0.356564 -2.871232
2007-04-18 07:49:51 51°12.277 2°48.341 19.6213 0.060151 0.357203 -2.871232
2007-04-18 07:49:55 51°12.269 2°48.318 19.6173 0.060151 0.357195 -2.871232
2007-04-18 07:50:01 51°12.257 2°48.284 19.6125 0.060151 0.357179 -2.871232
2007-04-18 07:50:06 51°12.246 2°48.256 19.6114 0.060151 0.357172 -2.871232
2007-04-18 07:50:11 51°12.236 2°48.228 19.6249 0.060151 0.357164 -2.871232
2007-04-18 07:50:16 51°12.226 2°48.2 19.6128 0.060151 0.357164 -2.871232
2007-04-18 07:50:21 51°12.216 2°48.171 19.6175 0.060151 0.357156 -2.871232
2007-04-18 07:50:25 51°12.208 2°48.149 19.5959 0.060151 0.357148 -2.871232
2007-04-18 07:50:30 51°12.199 2°48.12 19.6012 0.060151 0.357133 -2.871232
2007-04-18 07:50:36 51°12.19 2°48.084 19.6252 0.060048 0.356494 -2.871232
2007-04-18 07:50:41 51°12.183 2°48.053 19.6225 0.060151 0.357117 -2.871232
2007-04-18 07:50:45 51°12.178 2°48.028 19.6362 0.060151 0.357117 -2.871232
2007-04-18 07:50:50 51°12.172 2°47.997 19.6328 0.060151 0.357109 -2.871232
2007-04-18 07:50:55 51°12.167 2°47.966 19.6396 0.060151 0.357102 -2.871232
2007-04-18 07:51:01 51°12.16 2°47.928 19.6342 0.060151 0.357086 -2.871232
2007-04-18 07:51:06 51°12.156 2°47.897 19.644 0.060151 0.357078 -2.871232
2007-04-18 07:51:10 51°12.152 2°47.871 19.6359 0.060151 0.35707 -2.871232
2007-04-18 07:51:15 51°12.147 2°47.84 19.6465 0.060151 0.35707 -2.871232
2007-04-18 07:51:20 51°12.142 2°47.808 19.6381 0.060151 0.35707 -2.871232
2007-04-18 07:51:26 51°12.136 2°47.772 19.6485 0.060151 0.357063 -2.871232
2007-04-18 07:51:31 51°12.132 2°47.743 19.6468 0.060151 0.357055 -2.871232
2007-04-18 07:51:35 51°12.128 2°47.72 19.6347 0.060151 0.357047 -2.871232
2007-04-18 07:51:41 51°12.122 2°47.688 19.6644 0.060151 0.357047 -2.871232
2007-04-18 07:51:46 51°12.117 2°47.663 19.6629 0.060151 0.357039 -2.871232
2007-04-18 07:51:51 51°12.113 2°47.64 19.6797 0.060151 0.357031 -2.871232
2007-04-18 07:51:55 51°12.108 2°47.622 19.6645 0.060151 0.357031 -2.871232
2007-04-18 07:52:01 51°12.102 2°47.598 19.6605 0.060151 0.357024 -2.871232
2007-04-18 07:52:05 51°12.097 2°47.584 19.6651 0.060151 0.357024 -2.871232
2007-04-18 07:52:11 51°12.09 2°47.564 19.6522 0.060151 0.357024 -2.871232
2007-04-18 07:52:16 51°12.084 2°47.548 19.6537 0.060151 0.357024 -2.871232
2007-04-18 07:52:21 51°12.077 2°47.534 19.6516 0.060151 0.357008 -2.871232
2007-04-18 07:52:25 51°12.072 2°47.524 19.6498 0.060151 0.357 -2.871232
2007-04-18 07:52:30 51°12.066 2°47.513 19.6509 0.060151 0.357 -2.871232
2007-04-18 07:52:36 51°12.06 2°47.502 19.6475 0.060151 0.356993 -2.871232
2007-04-18 07:52:41 51°12.055 2°47.493 19.6523 0.060151 0.356993 -2.871232
2007-04-18 07:52:45 51°12.051 2°47.488 19.6506 0.060151 0.356993 -2.871232
2007-04-18 07:52:50 51°12.047 2°47.481 19.6525 0.060151 0.356977 -2.871232
2007-04-18 07:52:55 51°12.043 2°47.475 19.6487 0.060151 0.356969 -2.871232
2007-04-18 07:53:01 51°12.039 2°47.469 19.6543 0.060151 0.356961 -2.871232
2007-04-18 07:53:06 51°12.036 2°47.463 19.6532 0.060151 0.356954 -2.871232
2007-04-18 07:53:10 51°12.034 2°47.459 19.658 0.060151 0.356954 -2.871232
2007-04-18 07:53:15 51°12.03 2°47.455 19.6534 0.060151 0.356954 -2.871232
2007-04-18 07:53:21 51°12.027 2°47.449 19.6553 0.060151 0.356954 -2.871232
2007-04-18 07:53:26 51°12.023 2°47.445 19.6552 0.060151 0.356946 -2.871232
2007-04-18 07:53:30 51°12.021 2°47.441 19.66 0.060151 0.356946 -2.871232
2007-04-18 07:53:35 51°12.018 2°47.437 19.6599 0.060151 0.356946 -2.871232
2007-04-18 07:53:40 51°12.014 2°47.433 19.6559 0.060151 0.356946 -2.871232
2007-04-18 07:53:46 51°12.011 2°47.428 19.6561 0.060151 0.356954 -2.871232
2007-04-18 07:53:51 51°12.007 2°47.424 19.6632 0.060151 0.356954 -2.871232
2007-04-18 07:53:55 51°12.005 2°47.421 19.6639 0.060151 0.356954 -2.871232
2007-04-18 07:54:01 51°12.001 2°47.417 19.6595 0.060151 0.356946 -2.871232
2007-04-18 07:54:06 51°11.998 2°47.413 19.6626 0.060151 0.356946 -2.871232
2007-04-18 07:54:11 51°11.995 2°47.41 19.6621 0.060151 0.356938 -2.871232
2007-04-18 07:54:15 51°11.992 2°47.407 19.6621 0.060151 0.356938 -2.871232
2007-04-18 07:54:21 51°11.989 2°47.403 19.663 0.060151 0.35693 -2.871232
2007-04-18 07:54:25 51°11.986 2°47.4 19.665 0.060151 0.356923 -2.871232
2007-04-18 07:54:31 51°11.983 2°47.396 19.6621 0.060151 0.356915 -2.871232
2007-04-18 07:54:36 51°11.98 2°47.392 19.6658 0.060151 0.356915 -2.871232
2007-04-18 07:54:41 51°11.977 2°47.389 19.6664 0.060151 0.356907 -2.871232
2007-04-18 07:54:45 51°11.975 2°47.386 19.6703 0.060151 0.356907 -2.871232
2007-04-18 07:54:50 51°11.972 2°47.382 19.6732 0.060151 0.356899 -2.871232
2007-04-18 07:54:56 51°11.968 2°47.378 19.6737 0.060151 0.356891 -2.871232
2007-04-18 07:55:01 51°11.964 2°47.375 19.6739 0.060151 0.356884 -2.871232
2007-04-18 07:55:06 51°11.961 2°47.371 19.6697 0.060151 0.356884 -2.871232
2007-04-18 07:55:10 51°11.957 2°47.368 19.6759 0.060151 0.356884 -2.871232
2007-04-18 07:55:16 51°11.952 2°47.364 19.6741 0.060151 0.356876 -2.871232
2007-04-18 07:55:21 51°11.947 2°47.36 19.6722 0.060151 0.356868 -2.871232
2007-04-18 07:55:26 51°11.942 2°47.356 19.6755 0.060151 0.356868 -2.871232
2007-04-18 07:55:30 51°11.937 2°47.352 19.6744 0.060151 0.35686 -2.871232
2007-04-18 07:55:35 51°11.931 2°47.348 19.6721 0.060151 0.35686 -2.871232
2007-04-18 07:55:41 51°11.924 2°47.342 19.6703 0.060151 0.356853 -2.871232
2007-04-18 07:55:46 51°11.918 2°47.337 19.6809 0.060151 0.356853 -2.871232
2007-04-18 07:55:51 51°11.911 2°47.331 19.6702 0.060151 0.356853 -2.871232
2007-04-18 07:55:55 51°11.906 2°47.326 19.6767 0.060151 0.356853 -2.871232
2007-04-18 07:56:01 51°11.898 2°47.319 19.6792 0.060151 0.35686 -2.871232
2007-04-18 07:56:06 51°11.891 2°47.312 19.6761 0.060151 0.356853 -2.871232
2007-04-18 07:56:11 51°11.883 2°47.306 19.6801 0.060151 0.356853 -2.871232
2007-04-18 07:56:15 51°11.878 2°47.3 19.6805 0.060151 0.356853 -2.871232
2007-04-18 07:56:21 51°11.869 2°47.291 19.6707 0.060151 0.356845 -2.871232
2007-04-18 07:56:26 51°11.862 2°47.283 19.6757 0.060151 0.356845 -2.871232
2007-04-18 07:56:31 51°11.855 2°47.275 19.6757 0.060151 0.356845 -2.871232
2007-04-18 07:56:36 51°11.849 2°47.266 19.6764 0.060151 0.356837 -2.871232
2007-04-18 07:56:41 51°11.843 2°47.257 19.6776 0.060151 0.356837 -2.871232
2007-04-18 07:56:45 51°11.839 2°47.249 19.682 0.060151 0.356837 -2.871232
2007-04-18 07:56:51 51°11.832 2°47.238 19.6818 0.060151 0.356829 -2.871232
2007-04-18 07:56:56 51°11.828 2°47.228 19.6913 0.060151 0.356829 -2.871232
2007-04-18 07:57:01 51°11.823 2°47.217 19.6928 0.060151 0.356829 -2.871232
2007-04-18 07:57:05 51°11.82 2°47.21 19.6877 0.060151 0.356829 -2.871232
2007-04-18 07:57:10 51°11.815 2°47.2 19.6899 0.060151 0.356829 -2.871232
2007-04-18 07:57:16 51°11.81 2°47.188 19.6921 0.060151 0.356837 -2.871232
2007-04-18 07:57:21 51°11.806 2°47.178 19.6934 0.060151 0.356837 -2.871232
2007-04-18 07:57:26 51°11.802 2°47.169 19.6957 0.060151 0.356829 -2.871232
2007-04-18 07:57:30 51°11.799 2°47.162 19.6939 0.060151 0.356821 -2.871232
2007-04-18 07:57:36 51°11.795 2°47.151 19.6904 0.060151 0.356821 -2.871232
2007-04-18 07:57:41 51°11.792 2°47.142 19.6887 0.060151 0.356814 -2.871232
2007-04-18 07:57:46 51°11.788 2°47.133 19.6908 0.060151 0.356814 -2.871232
2007-04-18 07:57:50 51°11.785 2°47.126 19.6936 0.060151 0.356814 -2.871232
2007-04-18 07:57:55 51°11.782 2°47.117 19.6923 0.060151 0.356806 -2.871232
2007-04-18 07:58:01 51°11.778 2°47.107 19.692 0.060151 0.356806 -2.871232
2007-04-18 07:58:06 51°11.775 2°47.099 19.6943 0.060151 0.356806 -2.871232
2007-04-18 07:58:11 51°11.772 2°47.09 19.6918 0.060151 0.356798 -2.871232
2007-04-18 07:58:15 51°11.77 2°47.084 19.6964 0.060151 0.356798 -2.871232
2007-04-18 07:58:21 51°11.767 2°47.074 19.6979 0.060151 0.35679 -2.871232
2007-04-18 07:58:26 51°11.764 2°47.066 19.6985 0.060151 0.35679 -2.871232
2007-04-18 07:58:31 51°11.761 2°47.058 19.6985 0.060151 0.35679 -2.871232
2007-04-18 07:58:35 51°11.759 2°47.052 19.6977 0.060151 0.356783 -2.871232
2007-04-18 07:58:41 51°11.756 2°47.043 19.6995 0.060151 0.356783 -2.871232
2007-04-18 07:58:46 51°11.753 2°47.035 19.6968 0.060151 0.356783 -2.871232
2007-04-18 07:58:51 51°11.751 2°47.028 19.6992 0.060151 0.356783 -2.871232
2007-04-18 07:58:56 51°11.749 2°47.021 19.6994 0.060151 0.356775 -2.871232
2007-04-18 07:59:01 51°11.746 2°47.014 19.7013 0.060151 0.356775 -2.871232
2007-04-18 07:59:05 51°11.744 2°47.008 19.6997 0.060151 0.356767 -2.871232
2007-04-18 07:59:11 51°11.742 2°47 19.7026 0.060151 0.356767 -2.871232
2007-04-18 07:59:16 51°11.739 2°46.993 19.7065 0.060151 0.356767 -2.871232
2007-04-18 07:59:21 51°11.737 2°46.987 19.706 0.060151 0.356767 -2.871232
2007-04-18 07:59:26 51°11.735 2°46.98 19.7033 0.060151 0.356767 -2.871232
2007-04-18 07:59:31 51°11.733 2°46.974 19.7046 0.060151 0.356759 -2.871232
2007-04-18 07:59:36 51°11.731 2°46.967 19.7068 0.060151 0.356759 -2.871232
2007-04-18 07:59:41 51°11.729 2°46.961 19.7079 0.060151 0.356759 -2.871232
2007-04-18 07:59:46 51°11.727 2°46.955 19.7061 0.060151 0.356759 -2.871232
2007-04-18 07:59:50 51°11.725 2°46.95 19.7092 0.060151 0.356759 -2.871232
2007-04-18 07:59:55 51°11.723 2°46.944 19.7068 0.060151 0.356759 -2.871232
2007-04-18 08:00:01 51°11.721 2°46.937 19.7106 0.060151 0.356759 -2.871232
2007-04-18 08:00:06 51°11.718 2°46.931 19.7084 0.060151 0.356759 -2.871232
2007-04-18 08:00:11 51°11.716 2°46.926 19.7085 0.060151 0.356759 -2.871232
2007-04-18 08:00:15 51°11.715 2°46.921 19.709 0.060151 0.356759 -2.871232
2007-04-18 08:00:21 51°11.712 2°46.915 19.7101 0.060151 0.356759 -2.871232
2007-04-18 08:00:26 51°11.71 2°46.909 19.7131 0.060151 0.356759 -2.871232
2007-04-18 08:00:31 51°11.708 2°46.904 19.7123 0.060151 0.356759 -2.871232
2007-04-18 08:00:35 51°11.706 2°46.899 19.7115 0.060151 0.356767 -2.871232
2007-04-18 08:00:41 51°11.704 2°46.893 19.7126 0.060151 0.356767 -2.871232
2007-04-18 08:00:46 51°11.702 2°46.888 19.7138 0.060151 0.356759 -2.871232
2007-04-18 08:00:50 51°11.7 2°46.884 19.7144 0.060151 0.356767 -2.871232
2007-04-18 08:00:56 51°11.698 2°46.877 19.7167 0.060151 0.356767 -2.871232
2007-04-18 08:01:01 51°11.695 2°46.872 19.7142 0.060151 0.356767 -2.871232
2007-04-18 08:01:06 51°11.693 2°46.867 19.7192 0.060151 0.356775 -2.871232
2007-04-18 08:01:11 51°11.691 2°46.862 19.7175 0.060151 0.356775 -2.871232
2007-04-18 08:01:16 51°11.689 2°46.857 19.7174 0.060151 0.356775 -2.871232
2007-04-18 08:01:21 51°11.687 2°46.851 19.7169 0.060151 0.356775 -2.871232
2007-04-18 08:01:25 51°11.685 2°46.847 19.7192 0.060151 0.356783 -2.871232
2007-04-18 08:01:31 51°11.682 2°46.841 19.7202 0.060151 0.356783 -2.871232
2007-04-18 08:01:35 51°11.681 2°46.836 19.722 0.060151 0.356783 -2.871232
2007-04-18 08:01:41 51°11.678 2°46.83 19.7196 0.060151 0.35679 -2.871232
2007-04-18 08:01:46 51°11.676 2°46.824 19.7221 0.060151 0.35679 -2.871232
2007-04-18 08:01:50 51°11.674 2°46.82 19.7245 0.060151 0.35679 -2.871232
2007-04-18 08:01:56 51°11.671 2°46.813 19.724 0.060151 0.35679 -2.871232
2007-04-18 08:02:01 51°11.669 2°46.808 19.724 0.060151 0.356798 -2.871232
2007-04-18 08:02:06 51°11.666 2°46.802 19.7241 0.060151 0.356806 -2.871232
2007-04-18 08:02:10 51°11.665 2°46.798 19.7249 0.060151 0.356806 -2.871232
2007-04-18 08:02:16 51°11.662 2°46.791 19.7254 0.060151 0.356829 -2.871232
2007-04-18 08:02:21 51°11.66 2°46.785 19.7269 0.060151 0.356853 -2.871232
2007-04-18 08:02:26 51°11.657 2°46.779 19.7289 0.060151 0.356884 -2.871232
2007-04-18 08:02:31 51°11.655 2°46.774 19.7301 0.060151 0.356891 -2.871232
2007-04-18 08:02:35 51°11.653 2°46.769 19.7277 0.060151 0.356891 -2.871232
2007-04-18 08:02:41 51°11.65 2°46.762 19.7305 0.060151 0.356876 -2.871232
2007-04-18 08:02:46 51°11.648 2°46.756 19.7306 0.060151 0.356876 -2.871232
2007-04-18 08:02:50 51°11.646 2°46.751 19.7307 0.060151 0.356876 -2.871232
2007-04-18 08:02:55 51°11.644 2°46.745 19.727 0.060151 0.356884 -2.871232
2007-04-18 08:03:01 51°11.642 2°46.738 19.7302 0.060151 0.356891 -2.871232
2007-04-18 08:03:06 51°11.639 2°46.732 19.7309 0.060151 0.356907 -2.871232
2007-04-18 08:03:11 51°11.637 2°46.726 19.7305 0.060151 0.356907 -2.871232
2007-04-18 08:03:16 51°11.635 2°46.721 19.7346 0.060151 0.356907 -2.871232
2007-04-18 08:03:21 51°11.633 2°46.714 19.7342 0.060151 0.356899 -2.871232
2007-04-18 08:03:25 51°11.631 2°46.709 19.7324 0.060151 0.356891 -2.871232
2007-04-18 08:03:31 51°11.628 2°46.702 19.7346 0.060151 0.356884 -2.871232
2007-04-18 08:03:35 51°11.627 2°46.697 19.7342 0.060151 0.356876 -2.871232
2007-04-18 08:03:41 51°11.624 2°46.69 19.735 0.060151 0.356876 -2.871232
2007-04-18 08:03:46 51°11.622 2°46.684 19.7334 0.060151 0.356876 -2.871232
2007-04-18 08:03:50 51°11.62 2°46.679 19.7361 0.060151 0.356884 -2.871232
2007-04-18 08:03:56 51°11.617 2°46.672 19.7382 0.060151 0.356884 -2.871232
2007-04-18 08:04:01 51°11.615 2°46.665 19.7402 0.060151 0.356915 -2.871232
2007-04-18 08:04:06 51°11.614 2°46.659 19.7338 0.060151 0.356938 -2.871232
2007-04-18 08:04:10 51°11.612 2°46.654 19.7388 0.060151 0.356954 -2.871232
2007-04-18 08:04:16 51°11.61 2°46.646 19.7398 0.060151 0.356954 -2.871232
2007-04-18 08:04:21 51°11.608 2°46.64 19.7404 0.060151 0.356946 -2.871232
2007-04-18 08:04:25 51°11.606 2°46.635 19.741 0.060151 0.356938 -2.871232
2007-04-18 08:04:31 51°11.603 2°46.628 19.7431 0.060151 0.35693 -2.871232
2007-04-18 08:04:35 51°11.602 2°46.623 19.7402 0.060151 0.35693 -2.871232
2007-04-18 08:04:41 51°11.599 2°46.616 19.7412 0.060151 0.356923 -2.871232
2007-04-18 08:04:46 51°11.597 2°46.609 19.7397 0.060151 0.356923 -2.871232
2007-04-18 08:04:50 51°11.595 2°46.604 19.7416 0.060151 0.356915 -2.871232
2007-04-18 08:04:55 51°11.593 2°46.598 19.7446 0.060151 0.356915 -2.871232
2007-04-18 08:05:01 51°11.59 2°46.591 19.7474 0.060151 0.356915 -2.871232
2007-04-18 08:05:06 51°11.588 2°46.585 19.7462 0.060151 0.356923 -2.871232
2007-04-18 08:05:10 51°11.586 2°46.58 19.7447 0.060151 0.356946 -2.871232
2007-04-18 08:05:16 51°11.584 2°46.572 19.7486 0.060151 0.356946 -2.871232
2007-04-18 08:05:21 51°11.581 2°46.566 19.7447 0.060151 0.356969 -2.871232
2007-04-18 08:05:25 51°11.58 2°46.561 19.7449 0.060151 0.357008 -2.871232
2007-04-18 08:05:31 51°11.577 2°46.554 19.7492 0.060151 0.357024 -2.871232
2007-04-18 08:05:35 51°11.575 2°46.549 19.7485 0.060151 0.357039 -2.871232
2007-04-18 08:05:41 51°11.573 2°46.541 19.747 0.060151 0.357055 -2.871232
2007-04-18 08:05:45 51°11.571 2°46.536 19.7498 0.060151 0.357055 -2.871232
2007-04-18 08:05:51 51°11.568 2°46.529 19.7484 0.060151 0.357063 -2.871232
2007-04-18 08:05:55 51°11.566 2°46.524 19.7523 0.060048 0.356439 -2.871232
2007-04-18 08:06:01 51°11.564 2°46.516 19.7505 0.060151 0.357086 -2.871232
2007-04-18 08:06:06 51°11.562 2°46.51 19.7495 0.060048 0.356463 -2.871232
2007-04-18 08:06:10 51°11.56 2°46.505 19.7535 0.060048 0.356463 -2.871232
2007-04-18 08:06:16 51°11.557 2°46.497 19.7527 0.060048 0.356463 -2.871232
2007-04-18 08:06:21 51°11.555 2°46.491 19.7529 0.060151 0.357086 -2.871232
2007-04-18 08:06:25 51°11.553 2°46.486 19.7568 0.060048 0.356432 -2.871232
2007-04-18 08:06:30 51°11.551 2°46.48 19.7527 0.060151 0.357055 -2.871232
2007-04-18 08:06:36 51°11.549 2°46.472 19.7562 0.060048 0.356408 -2.871232
2007-04-18 08:06:41 51°11.547 2°46.466 19.7549 0.060151 0.357031 -2.871232
2007-04-18 08:06:46 51°11.544 2°46.46 19.7531 0.060151 0.357031 -2.871232
2007-04-18 08:06:50 51°11.543 2°46.455 19.7563 0.060048 0.3564 -2.871232
2007-04-18 08:06:55 51°11.541 2°46.448 19.757 0.060048 0.3564 -2.871232
2007-04-18 08:07:01 51°11.538 2°46.441 19.7582 0.060151 0.357031 -2.871232
2007-04-18 08:07:06 51°11.536 2°46.434 19.7556 0.060048 0.3564 -2.871232
2007-04-18 08:07:10 51°11.535 2°46.429 19.7574 0.060151 0.357031 -2.871232
2007-04-18 08:07:15 51°11.532 2°46.423 19.7583 0.060151 0.357031 -2.871232
2007-04-18 08:07:21 51°11.53 2°46.415 19.7578 0.060048 0.356408 -2.871232
2007-04-18 08:07:26 51°11.528 2°46.409 19.7615 0.060151 0.357039 -2.871232
2007-04-18 08:07:31 51°11.526 2°46.402 19.7607 0.060048 0.356408 -2.871232
2007-04-18 08:07:35 51°11.524 2°46.397 19.7623 0.060151 0.357047 -2.871232
2007-04-18 08:07:41 51°11.522 2°46.39 19.7617 0.060151 0.357047 -2.871232
2007-04-18 08:07:46 51°11.52 2°46.383 19.7614 0.060048 0.356424 -2.871232
2007-04-18 08:07:51 51°11.518 2°46.377 19.763 0.060151 0.357055 -2.871232
2007-04-18 08:07:55 51°11.516 2°46.372 19.7653 0.060151 0.35707 -2.871232
2007-04-18 08:08:01 51°11.514 2°46.364 19.7638 0.060151 0.35707 -2.871232
2007-04-18 08:08:05 51°11.513 2°46.359 19.7618 0.060151 0.357086 -2.871232
2007-04-18 08:08:11 51°11.51 2°46.351 19.7657 0.060151 0.357094 -2.871232
2007-04-18 08:08:16 51°11.508 2°46.345 19.7669 0.060151 0.357094 -2.871232
2007-04-18 08:08:21 51°11.506 2°46.338 19.7661 0.060151 0.357117 -2.871232
2007-04-18 08:08:25 51°11.505 2°46.333 19.7661 0.060048 0.356494 -2.871232
2007-04-18 08:08:31 51°11.502 2°46.326 19.7676 0.060151 0.357125 -2.871232
2007-04-18 08:08:36 51°11.499 2°46.32 19.7664 0.060048 0.356509 -2.871232
2007-04-18 08:08:41 51°11.497 2°46.313 19.7618 0.060048 0.356525 -2.871232
2007-04-18 08:08:45 51°11.496 2°46.308 19.7653 0.060048 0.356525 -2.871232
2007-04-18 08:08:50 51°11.494 2°46.302 19.7667 0.060151 0.357164 -2.871232
2007-04-18 08:08:56 51°11.492 2°46.294 19.7669 0.060048 0.35654 -2.871232
2007-04-18 08:09:01 51°11.49 2°46.288 19.7691 0.060048 0.356548 -2.871232
2007-04-18 08:09:06 51°11.488 2°46.281 19.7665 0.060048 0.356556 -2.871232
2007-04-18 08:09:10 51°11.486 2°46.276 19.7718 0.060048 0.356564 -2.871232
2007-04-18 08:09:15 51°11.484 2°46.27 19.7683 0.060048 0.356564 -2.871232
2007-04-18 08:09:21 51°11.482 2°46.262 19.7699 0.060048 0.356571 -2.871232
2007-04-18 08:09:26 51°11.48 2°46.255 19.7687 0.060151 0.357211 -2.871232
2007-04-18 08:09:30 51°11.479 2°46.25 19.7671 0.060048 0.356587 -2.871232
2007-04-18 08:09:35 51°11.477 2°46.243 19.7701 0.060048 0.356587 -2.871232
2007-04-18 08:09:41 51°11.475 2°46.236 19.7709 0.060048 0.356587 -2.871232
2007-04-18 08:09:46 51°11.473 2°46.229 19.7715 0.060048 0.356603 -2.871232
2007-04-18 08:09:51 51°11.471 2°46.223 19.7694 0.060048 0.35661 -2.871232
2007-04-18 08:09:55 51°11.469 2°46.218 19.774 0.060048 0.356618 -2.871232
2007-04-18 08:10:01 51°11.467 2°46.21 19.7715 0.060048 0.356626 -2.871232
2007-04-18 08:10:06 51°11.465 2°46.203 19.7729 0.060048 0.356634 -2.871232
2007-04-18 08:10:11 51°11.463 2°46.197 19.7728 0.060048 0.356649 -2.871232
2007-04-18 08:10:15 51°11.462 2°46.191 19.7744 0.060048 0.356649 -2.871232
2007-04-18 08:10:21 51°11.46 2°46.184 19.7762 0.060048 0.356657 -2.871232
2007-04-18 08:10:25 51°11.458 2°46.178 19.7747 0.060048 0.356665 -2.871232
2007-04-18 08:10:31 51°11.456 2°46.17 19.776 0.060048 0.356673 -2.871232
2007-04-18 08:10:36 51°11.454 2°46.164 19.776 0.060048 0.35668 -2.871232
2007-04-18 08:10:41 51°11.453 2°46.157 19.7762 0.060048 0.356688 -2.871232
2007-04-18 08:10:45 51°11.451 2°46.152 19.7754 0.060048 0.356688 -2.871232
2007-04-18 08:10:51 51°11.449 2°46.144 19.7762 0.060048 0.356696 -2.871232
2007-04-18 08:10:56 51°11.447 2°46.137 19.7782 0.060048 0.356704 -2.871232
2007-04-18 08:11:01 51°11.445 2°46.131 19.777 0.060048 0.356712 -2.871232
2007-04-18 08:11:06 51°11.444 2°46.124 19.7775 0.060048 0.356719 -2.871232
2007-04-18 08:11:10 51°11.442 2°46.119 19.7787 0.060048 0.356727 -2.871232
2007-04-18 08:11:15 51°11.441 2°46.112 19.777 0.060048 0.356727 -2.871232
2007-04-18 08:11:21 51°11.439 2°46.104 19.7793 0.060048 0.356735 -2.871232
2007-04-18 08:11:26 51°11.437 2°46.097 19.7787 0.060048 0.356743 -2.871232
2007-04-18 08:11:30 51°11.436 2°46.092 19.7783 0.060048 0.356758 -2.871232
2007-04-18 08:11:35 51°11.434 2°46.085 19.7804 0.060048 0.356766 -2.871232
2007-04-18 08:11:41 51°11.432 2°46.077 19.7814 0.060048 0.356789 -2.871232
2007-04-18 08:11:46 51°11.431 2°46.071 19.7798 0.060048 0.356789 -2.871232
2007-04-18 08:11:51 51°11.429 2°46.064 19.7833 0.060048 0.356797 -2.871232
2007-04-18 08:11:55 51°11.428 2°46.059 19.78 0.060048 0.356813 -2.871232
2007-04-18 08:12:01 51°11.427 2°46.05 19.7815 0.060048 0.356821 -2.871232
2007-04-18 08:12:06 51°11.425 2°46.044 19.7816 0.060048 0.356844 -2.871232
2007-04-18 08:12:11 51°11.424 2°46.037 19.7809 0.060048 0.356859 -2.871232
2007-04-18 08:12:15 51°11.423 2°46.032 19.784 0.060048 0.356859 -2.871232
2007-04-18 08:12:21 51°11.422 2°46.024 19.7839 0.060048 0.356875 -2.871232
2007-04-18 08:12:25 51°11.421 2°46.019 19.7839 0.060048 0.356906 -2.871232
2007-04-18 08:12:31 51°11.42 2°46.011 19.7856 0.060048 0.356922 -2.871232
2007-04-18 08:12:36 51°11.42 2°46.004 19.7841 0.060048 0.356937 -2.871232
2007-04-18 08:12:41 51°11.419 2°45.998 19.7849 0.060048 0.356953 -2.871232
2007-04-18 08:12:45 51°11.418 2°45.992 19.7874 0.060048 0.356953 -2.871232
2007-04-18 08:12:51 51°11.417 2°45.984 19.7877 0.060048 0.356953 -2.871232
2007-04-18 08:12:56 51°11.417 2°45.978 19.7858 0.060048 0.356969 -2.871232
2007-04-18 08:13:01 51°11.416 2°45.971 19.788 0.059945 0.356344 -2.871232
2007-04-18 08:13:05 51°11.416 2°45.966 19.789 0.060048 0.356984 -2.871232
2007-04-18 08:13:10 51°11.415 2°45.96 19.7877 0.060048 0.357008 -2.871232
2007-04-18 08:13:16 51°11.415 2°45.952 19.7888 0.060048 0.357008 -2.871232
2007-04-18 08:13:21 51°11.415 2°45.946 19.7861 0.059945 0.356399 -2.871232
2007-04-18 08:13:26 51°11.414 2°45.939 19.7888 0.060048 0.357039 -2.871232
2007-04-18 08:13:30 51°11.414 2°45.935 19.7898 0.060048 0.357054 -2.871232
2007-04-18 08:13:35 51°11.414 2°45.928 19.7919 0.059945 0.356422 -2.871232
2007-04-18 08:13:41 51°11.414 2°45.921 19.789 0.060048 0.357047 -2.871232
2007-04-18 08:13:46 51°11.414 2°45.915 19.7932 0.060048 0.357047 -2.871232
2007-04-18 08:13:50 51°11.414 2°45.91 19.7914 0.059945 0.356414 -2.871232
2007-04-18 08:13:55 51°11.414 2°45.904 19.7901 0.060048 0.357047 -2.871232
2007-04-18 08:14:01 51°11.415 2°45.897 19.7933 0.059945 0.356414 -2.871232
2007-04-18 08:14:06 51°11.415 2°45.891 19.796 0.059945 0.356407 -2.871232
2007-04-18 08:14:11 51°11.416 2°45.885 19.7916 0.059945 0.356414 -2.871232
2007-04-18 08:14:15 51°11.416 2°45.881 19.7929 0.059945 0.356414 -2.871232
2007-04-18 08:14:21 51°11.417 2°45.873 19.7935 0.060048 0.357047 -2.871232
2007-04-18 08:14:26 51°11.418 2°45.867 19.7947 0.060048 0.357039 -2.871232
2007-04-18 08:14:31 51°11.419 2°45.861 19.792 0.059945 0.356414 -2.871232
2007-04-18 08:14:35 51°11.42 2°45.856 19.7952 0.060048 0.357047 -2.871232
2007-04-18 08:14:41 51°11.422 2°45.849 19.7933 0.060048 0.357054 -2.871232
2007-04-18 08:14:45 51°11.423 2°45.844 19.7962 0.060048 0.357054 -2.871232
2007-04-18 08:14:51 51°11.425 2°45.836 19.7959 0.060048 0.357054 -2.871232
2007-04-18 08:14:56 51°11.427 2°45.83 19.7963 0.060048 0.357078 -2.871232
2007-04-18 08:15:01 51°11.429 2°45.824 19.7968 0.060048 0.357086 -2.871232
2007-04-18 08:15:05 51°11.43 2°45.818 19.7997 0.059945 0.356453 -2.871232
2007-04-18 08:15:11 51°11.433 2°45.81 19.7997 0.059945 0.356453 -2.871232
2007-04-18 08:15:16 51°11.435 2°45.803 19.7986 0.059945 0.356453 -2.871232
2007-04-18 08:15:21 51°11.436 2°45.796 19.8013 0.059945 0.356446 -2.871232
2007-04-18 08:15:26 51°11.438 2°45.789 19.797 0.060048 0.357078 -2.871232
2007-04-18 08:15:30 51°11.44 2°45.783 19.8021 0.059945 0.356446 -2.871232
2007-04-18 08:15:36 51°11.442 2°45.774 19.8003 0.059945 0.356446 -2.871232
2007-04-18 08:15:41 51°11.443 2°45.767 19.8014 0.059945 0.356453 -2.871232
2007-04-18 08:15:46 51°11.444 2°45.759 19.8011 0.059945 0.356453 -2.871232
2007-04-18 08:15:50 51°11.445 2°45.752 19.7994 0.059945 0.356446 -2.871232
2007-04-18 08:15:55 51°11.447 2°45.744 19.7983 0.059945 0.356446 -2.871232
2007-04-18 08:16:01 51°11.448 2°45.734 19.7987 0.060048 0.357086 -2.871232
2007-04-18 08:16:06 51°11.448 2°45.726 19.7994 0.059945 0.356453 -2.871232
2007-04-18 08:16:11 51°11.449 2°45.718 19.7986 0.059945 0.356461 -2.871232
2007-04-18 08:16:15 51°11.449 2°45.711 19.7967 0.059945 0.356461 -2.871232
2007-04-18 08:16:21 51°11.45 2°45.702 19.7981 0.059945 0.356461 -2.871232
2007-04-18 08:16:26 51°11.45 2°45.693 19.799 0.059945 0.356461 -2.871232
2007-04-18 08:16:31 51°11.451 2°45.686 19.7982 0.059945 0.356469 -2.871232
2007-04-18 08:16:35 51°11.451 2°45.679 19.7998 0.059945 0.356469 -2.871232
2007-04-18 08:16:41 51°11.451 2°45.669 19.8012 0.059945 0.356469 -2.871232
2007-04-18 08:16:45 51°11.452 2°45.663 19.7983 0.059945 0.356477 -2.871232
2007-04-18 08:16:51 51°11.452 2°45.654 19.8039 0.059945 0.356477 -2.871232
2007-04-18 08:16:56 51°11.452 2°45.645 19.8021 0.059945 0.356485 -2.871232
2007-04-18 08:17:01 51°11.452 2°45.638 19.8029 0.059945 0.3565 -2.871232
2007-04-18 08:17:05 51°11.452 2°45.631 19.8004 0.059945 0.356516 -2.871232
2007-04-18 08:17:11 51°11.453 2°45.622 19.8067 0.059945 0.356523 -2.871232
2007-04-18 08:17:16 51°11.453 2°45.614 19.8029 0.059945 0.356523 -2.871232
2007-04-18 08:17:21 51°11.453 2°45.607 19.8032 0.059945 0.356523 -2.871232
2007-04-18 08:17:25 51°11.453 2°45.601 19.803 0.059945 0.356523 -2.871232
2007-04-18 08:17:31 51°11.453 2°45.591 19.8053 0.059945 0.356523 -2.871232
2007-04-18 08:17:36 51°11.454 2°45.584 19.808 0.059945 0.356531 -2.871232
2007-04-18 08:17:41 51°11.454 2°45.576 19.8054 0.059945 0.356531 -2.871232
2007-04-18 08:17:46 51°11.454 2°45.569 19.8055 0.059945 0.356531 -2.871232
2007-04-18 08:17:50 51°11.454 2°45.563 19.8046 0.059945 0.356539 -2.871232
2007-04-18 08:17:56 51°11.454 2°45.554 19.8046 0.059945 0.356539 -2.871232
2007-04-18 08:18:01 51°11.454 2°45.546 19.8081 0.059945 0.356547 -2.871232
2007-04-18 08:18:06 51°11.454 2°45.539 19.8065 0.059945 0.356555 -2.871232
2007-04-18 08:18:10 51°11.454 2°45.533 19.8091 0.059945 0.356562 -2.871232
2007-04-18 08:18:15 51°11.454 2°45.526 19.8081 0.059945 0.356562 -2.871232
2007-04-18 08:18:21 51°11.454 2°45.517 19.8074 0.059945 0.356562 -2.871232
2007-04-18 08:18:26 51°11.455 2°45.51 19.8072 0.059945 0.35657 -2.871232
2007-04-18 08:18:31 51°11.455 2°45.502 19.8083 0.059945 0.35657 -2.871232
2007-04-18 08:18:35 51°11.455 2°45.497 19.8109 0.059945 0.356586 -2.871232
2007-04-18 08:18:41 51°11.456 2°45.488 19.8072 0.059945 0.356586 -2.871232
2007-04-18 08:18:46 51°11.456 2°45.481 19.8091 0.059945 0.356586 -2.871232
2007-04-18 08:18:50 51°11.456 2°45.475 19.8081 0.059945 0.356601 -2.871232
2007-04-18 08:18:55 51°11.457 2°45.468 19.811 0.059945 0.356601 -2.871232
2007-04-18 08:19:01 51°11.457 2°45.46 19.809 0.059945 0.356609 -2.871232
2007-04-18 08:19:06 51°11.458 2°45.453 19.8099 0.059945 0.356617 -2.871232
2007-04-18 08:19:11 51°11.458 2°45.446 19.8051 0.059945 0.356625 -2.871232
2007-04-18 08:19:16 51°11.459 2°45.44 19.8069 0.059945 0.356625 -2.871232
2007-04-18 08:19:21 51°11.46 2°45.433 19.8103 0.059945 0.356625 -2.871232
2007-04-18 08:19:25 51°11.46 2°45.428 19.8117 0.059945 0.356633 -2.871232
2007-04-18 08:19:31 51°11.461 2°45.42 19.8101 0.059945 0.35664 -2.871232
2007-04-18 08:19:35 51°11.462 2°45.415 19.8116 0.059945 0.356656 -2.871232
2007-04-18 08:19:41 51°11.463 2°45.407 19.8123 0.059945 0.356664 -2.871232
2007-04-18 08:19:46 51°11.464 2°45.4 19.8136 0.059945 0.356664 -2.871232
2007-04-18 08:19:51 51°11.464 2°45.394 19.8123 0.059945 0.356679 -2.871232
2007-04-18 08:19:56 51°11.465 2°45.387 19.8131 0.059945 0.356679 -2.871232
2007-04-18 08:20:01 51°11.466 2°45.381 19.8152 0.059945 0.356695 -2.871232
2007-04-18 08:20:06 51°11.467 2°45.375 19.8158 0.059945 0.356703 -2.871232
2007-04-18 08:20:10 51°11.468 2°45.37 19.8141 0.059945 0.356703 -2.871232
2007-04-18 08:20:16 51°11.468 2°45.362 19.816 0.059945 0.356711 -2.871232
2007-04-18 08:20:21 51°11.469 2°45.355 19.8161 0.059945 0.356718 -2.871232
2007-04-18 08:20:26 51°11.47 2°45.349 19.8163 0.059945 0.356734 -2.871232
2007-04-18 08:20:31 51°11.471 2°45.343 19.8181 0.059945 0.356757 -2.871232
2007-04-18 08:20:36 51°11.471 2°45.336 18.6481 0.059945 0.356765 -2.871232
2007-04-18 08:20:41 51°11.472 2°45.33 13.6903 0.059945 0.356765 -2.871232
2007-04-18 08:20:46 51°11.472 2°45.323 13.5625 0.059945 0.356765 -2.871232
2007-04-18 08:20:50 51°11.473 2°45.318 13.4777 0.059945 0.356773 -2.871232
2007-04-18 08:20:55 51°11.474 2°45.311 13.4744 0.059945 0.356773 -2.871232
2007-04-18 08:21:01 51°11.474 2°45.304 13.513 0.060357 0.359304 -2.871232
2007-04-18 08:21:06 51°11.475 2°45.297 13.715 0.061489 0.366271 -2.871232
2007-04-18 08:21:11 51°11.475 2°45.291 13.7695 0.062518 0.37261 -2.871232
2007-04-18 08:21:16 51°11.476 2°45.284 13.9233 0.062518 0.37261 -2.871232
2007-04-18 08:21:21 51°11.477 2°45.278 13.7541 0.063135 0.376424 -2.871232
2007-04-18 08:21:26 51°11.477 2°45.271 13.7458 0.063444 0.378328 -2.871232
2007-04-18 08:21:31 51°11.478 2°45.265 13.7993 0.063341 0.37771 -2.871232
2007-04-18 08:21:35 51°11.478 2°45.26 13.772 0.063135 0.376441 -2.871232
2007-04-18 08:21:41 51°11.479 2°45.253 14.114 0.062826 0.374545 -2.871232
2007-04-18 08:21:45 51°11.48 2°45.248 14.1987 0.062826 0.374545 -2.871232
2007-04-18 08:21:51 51°11.48 2°45.24 14.1906 0.062621 0.373285 -2.871232
2007-04-18 08:21:56 51°11.481 2°45.234 14.1102 0.062518 0.372651 -2.871232
2007-04-18 08:22:01 51°11.482 2°45.228 14.1106 0.062518 0.372659 -2.871232
2007-04-18 08:22:06 51°11.482 2°45.221 14.2548 0.062415 0.372025 -2.871232
2007-04-18 08:22:11 51°11.483 2°45.215 14.2607 0.062312 0.371407 -2.871232
2007-04-18 08:22:16 51°11.484 2°45.209 14.2921 0.062312 0.371407 -2.871232
2007-04-18 08:22:21 51°11.484 2°45.203 14.3385 0.062312 0.371415 -2.871232
2007-04-18 08:22:25 51°11.485 2°45.198 14.4563 0.062106 0.370146 -2.871232
2007-04-18 08:22:30 51°11.485 2°45.192 14.5703 0.062003 0.369521 -2.871232
2007-04-18 08:22:36 51°11.486 2°45.184 14.5206 0.0619 0.368887 -2.871232
2007-04-18 08:22:41 51°11.487 2°45.178 14.5486 0.061797 0.368261 -2.871232
2007-04-18 08:22:46 51°11.488 2°45.172 14.7173 0.061797 0.368261 -2.871232
2007-04-18 08:22:50 51°11.488 2°45.168 14.4478 0.061694 0.367635 -2.871232
2007-04-18 08:22:55 51°11.489 2°45.162 14.462 0.061592 0.367001 -2.871232
2007-04-18 08:23:01 51°11.49 2°45.155 14.655 0.061694 0.367643 -2.871232
2007-04-18 08:23:06 51°11.491 2°45.149 14.6491 0.061592 0.367017 -2.871232
2007-04-18 08:23:10 51°11.491 2°45.144 14.659 0.061592 0.367017 -2.871232
2007-04-18 08:23:16 51°11.493 2°45.138 14.7548 0.061592 0.367017 -2.871232
2007-04-18 08:23:21 51°11.493 2°45.132 14.7753 0.061489 0.366391 -2.871232
2007-04-18 08:23:26 51°11.495 2°45.127 14.7424 0.061386 0.365765 -2.871232
2007-04-18 08:23:31 51°11.496 2°45.122 14.8882 0.061386 0.365773 -2.871232
2007-04-18 08:23:35 51°11.497 2°45.118 14.9316 0.061283 0.365148 -2.871232
2007-04-18 08:23:41 51°11.498 2°45.113 15.031 0.061283 0.365156 -2.871232
2007-04-18 08:23:45 51°11.499 2°45.109 15.3138 0.061283 0.365156 -2.871232
2007-04-18 08:23:51 51°11.501 2°45.104 15.1915 0.061283 0.365164 -2.871232
2007-04-18 08:23:55 51°11.502 2°45.101 14.9333 0.06118 0.364538 -2.871232
2007-04-18 08:24:01 51°11.504 2°45.096 14.7039 0.06118 0.364546 -2.871232
2007-04-18 08:24:06 51°11.505 2°45.093 14.8981 0.061077 0.36392 -2.871232
2007-04-18 08:24:11 51°11.506 2°45.089 15.1553 0.061077 0.363928 -2.871232
2007-04-18 08:24:16 51°11.508 2°45.086 15.2865 0.061077 0.363928 -2.871232
2007-04-18 08:24:21 51°11.509 2°45.083 15.5787 0.061077 0.363936 -2.871232
2007-04-18 08:24:25 51°11.51 2°45.081 15.1967 0.060974 0.363302 -2.871232
2007-04-18 08:24:30 51°11.511 2°45.078 14.8158 0.060974 0.36331 -2.871232
2007-04-18 08:24:36 51°11.513 2°45.074 15.2111 0.060974 0.363318 -2.871232
2007-04-18 08:24:41 51°11.514 2°45.071 14.973 0.060974 0.363318 -2.871232
2007-04-18 08:24:46 51°11.514 2°45.069 15.0592 0.060974 0.363318 -2.871232
2007-04-18 08:24:50 51°11.515 2°45.066 15.1928 0.060871 0.362692 -2.871232
2007-04-18 08:24:56 51°11.516 2°45.063 15.1028 0.060871 0.3627 -2.871232
2007-04-18 08:25:01 51°11.517 2°45.06 14.9684 0.060871 0.362708 -2.871232
2007-04-18 08:25:06 51°11.518 2°45.057 15.0077 0.060871 0.362716 -2.871232
2007-04-18 08:25:10 51°11.518 2°45.055 14.9299 0.060768 0.362083 -2.871232
2007-04-18 08:25:15 51°11.519 2°45.052 15.3297 0.060768 0.362083 -2.871232
2007-04-18 08:25:21 51°11.52 2°45.049 15.3131 0.060768 0.36209 -2.871232
2007-04-18 08:25:26 51°11.52 2°45.046 15.3912 0.060768 0.362114 -2.871232
2007-04-18 08:25:31 51°11.521 2°45.043 15.4674 0.060768 0.362019 -2.871232
2007-04-18 08:25:35 51°11.522 2°45.041 15.3363 0.060768 0.361987 -2.871232
2007-04-18 08:25:41 51°11.522 2°45.038 15.1453 0.060768 0.361995 -2.871232
2007-04-18 08:25:46 51°11.523 2°45.035 15.5132 0.060768 0.361995 -2.871232
2007-04-18 08:25:51 51°11.523 2°45.032 15.6963 0.060768 0.362043 -2.871232
2007-04-18 08:25:55 51°11.523 2°45.029 15.3939 0.060768 0.36209 -2.871232
2007-04-18 08:26:01 51°11.524 2°45.026 15.3894 0.060665 0.361473 -2.871232
2007-04-18 08:26:06 51°11.524 2°45.023 15.3137 0.060665 0.361504 -2.871232
2007-04-18 08:26:11 51°11.524 2°45.02 16.1583 0.060665 0.361512 -2.871232
2007-04-18 08:26:16 51°11.525 2°45.017 15.4043 0.060665 0.361512 -2.871232
2007-04-18 08:26:21 51°11.525 2°45.014 15.3566 0.060665 0.361528 -2.871232
2007-04-18 08:26:25 51°11.525 2°45.012 15.423 0.060665 0.361536 -2.871232
2007-04-18 08:26:30 51°11.525 2°45.009 15.7156 0.060562 0.36091 -2.871232
2007-04-18 08:26:36 51°11.525 2°45.005 15.706 0.060665 0.361544 -2.871232
2007-04-18 08:26:41 51°11.525 2°45.002 15.4131 0.060562 0.360918 -2.871232
2007-04-18 08:26:45 51°11.526 2°45 15.4559 0.060562 0.360918 -2.871232
2007-04-18 08:26:51 51°11.526 2°44.997 15.3781 0.060562 0.360934 -2.871232
2007-04-18 08:26:56 51°11.526 2°44.994 15.603 0.060562 0.360926 -2.871232
2007-04-18 08:27:01 51°11.526 2°44.991 15.4852 0.060562 0.360934 -2.871232
2007-04-18 08:27:06 51°11.526 2°44.988 15.5212 0.060562 0.360942 -2.871232
2007-04-18 08:27:10 51°11.526 2°44.986 15.5609 0.060562 0.36095 -2.871232
2007-04-18 08:27:15 51°11.526 2°44.983 15.3126 0.060562 0.36095 -2.871232
2007-04-18 08:27:21 51°11.527 2°44.979 15.3362 0.060562 0.360958 -2.871232
2007-04-18 08:27:26 51°11.528 2°44.975 15.4035 0.060459 0.360332 -2.871232
2007-04-18 08:27:30 51°11.529 2°44.973 16.4117 0.060459 0.360332 -2.871232
2007-04-18 08:27:35 51°11.531 2°44.969 16.0861 0.060459 0.360332 -2.871232
2007-04-18 08:27:41 51°11.534 2°44.965 16.0894 0.060459 0.360348 -2.871232
2007-04-18 08:27:46 51°11.537 2°44.963 15.8468 0.060459 0.360348 -2.871232
2007-04-18 08:27:51 51°11.54 2°44.961 15.9433 0.060459 0.360348 -2.871232
2007-04-18 08:27:55 51°11.543 2°44.96 15.6151 0.060459 0.360355 -2.871232
2007-04-18 08:28:01 51°11.547 2°44.959 15.6187 0.060459 0.360355 -2.871232
2007-04-18 08:28:06 51°11.551 2°44.961 15.4031 0.060459 0.360363 -2.871232
2007-04-18 08:28:11 51°11.555 2°44.963 15.2662 0.060357 0.359737 -2.871232
2007-04-18 08:28:15 51°11.558 2°44.966 15.2334 0.060357 0.359737 -2.871232
2007-04-18 08:28:21 51°11.561 2°44.972 15.5992 0.060357 0.359737 -2.871232
2007-04-18 08:28:25 51°11.563 2°44.977 15.2532 0.060357 0.359737 -2.871232
2007-04-18 08:28:31 51°11.565 2°44.986 15.5084 0.060357 0.359745 -2.871232
2007-04-18 08:28:36 51°11.565 2°44.994 15.581 0.060357 0.359753 -2.871232
2007-04-18 08:28:41 51°11.565 2°45.002 15.8468 0.060459 0.360395 -2.871232
2007-04-18 08:28:45 51°11.564 2°45.009 16.03 0.060459 0.360395 -2.871232
2007-04-18 08:28:51 51°11.561 2°45.02 15.7288 0.060357 0.359769 -2.871232
2007-04-18 08:28:56 51°11.558 2°45.029 15.4776 0.060357 0.359777 -2.871232
2007-04-18 08:29:01 51°11.555 2°45.04 15.6649 0.060459 0.360419 -2.871232
2007-04-18 08:29:06 51°11.551 2°45.051 15.3599 0.060357 0.359793 -2.871232
2007-04-18 08:29:10 51°11.549 2°45.061 15.3798 0.060357 0.359793 -2.871232
2007-04-18 08:29:16 51°11.545 2°45.078 15.7213 0.060562 0.361076 -2.871232
2007-04-18 08:29:21 51°11.542 2°45.093 15.8523 0.060459 0.36045 -2.871232
2007-04-18 08:29:26 51°11.539 2°45.109 15.3843 0.060459 0.360458 -2.871232
2007-04-18 08:29:30 51°11.537 2°45.122 15.2683 0.060459 0.360458 -2.871232
2007-04-18 08:29:35 51°11.535 2°45.141 15.3056 0.060459 0.360458 -2.871232
2007-04-18 08:29:41 51°11.534 2°45.163 15.254 0.060459 0.360466 -2.871232
2007-04-18 08:29:46 51°11.532 2°45.183 15.2179 0.060459 0.360466 -2.871232
2007-04-18 08:29:51 51°11.531 2°45.203 15.2157 0.060459 0.360474 -2.871232
2007-04-18 08:29:55 51°11.53 2°45.219 15.2184 0.060459 0.360482 -2.871232
2007-04-18 08:30:01 51°11.529 2°45.244 15.4095 0.060357 0.359856 -2.871232
2007-04-18 08:30:06 51°11.529 2°45.265 15.9195 0.060357 0.359856 -2.871232
2007-04-18 08:30:11 51°11.528 2°45.286 15.5916 0.060357 0.359864 -2.871232
2007-04-18 08:30:15 51°11.528 2°45.301 15.7697 0.060357 0.359864 -2.871232
2007-04-18 08:30:21 51°11.528 2°45.323 15.4902 0.060357 0.359871 -2.871232
2007-04-18 08:30:26 51°11.528 2°45.339 15.1935 0.060357 0.359879 -2.871232
2007-04-18 08:30:31 51°11.528 2°45.354 15.2389 0.060357 0.359887 -2.871232
2007-04-18 08:30:36 51°11.529 2°45.368 15.173 0.060357 0.359887 -2.871232
2007-04-18 08:30:41 51°11.53 2°45.38 15.252 0.060254 0.359261 -2.871232
2007-04-18 08:30:46 51°11.532 2°45.391 15.1658 0.060254 0.359261 -2.871232
2007-04-18 08:30:51 51°11.534 2°45.401 15.5818 0.060254 0.359261 -2.871232
2007-04-18 08:30:56 51°11.536 2°45.409 15.7032 0.060254 0.359269 -2.871232
2007-04-18 08:31:01 51°11.538 2°45.416 15.6327 0.060254 0.359277 -2.871232
2007-04-18 08:31:05 51°11.54 2°45.42 15.6743 0.060254 0.359285 -2.871232
2007-04-18 08:31:11 51°11.543 2°45.426 15.8837 0.060254 0.359293 -2.871232
2007-04-18 08:31:16 51°11.545 2°45.429 15.8776 0.060254 0.359293 -2.871232
2007-04-18 08:31:21 51°11.547 2°45.432 15.6809 0.060254 0.3593 -2.871232
2007-04-18 08:31:26 51°11.55 2°45.433 15.6386 0.060254 0.359308 -2.871232
2007-04-18 08:31:30 51°11.551 2°45.434 15.6263 0.060254 0.359316 -2.871232
2007-04-18 08:31:36 51°11.553 2°45.434 15.3617 0.060151 0.358698 -2.871232
2007-04-18 08:31:41 51°11.555 2°45.434 15.4305 0.060151 0.358706 -2.871232
2007-04-18 08:31:46 51°11.556 2°45.433 15.4176 0.060151 0.358706 -2.871232
2007-04-18 08:31:50 51°11.557 2°45.432 15.5359 0.060151 0.358721 -2.871232
2007-04-18 08:31:55 51°11.559 2°45.431 15.3578 0.060151 0.358729 -2.871232
2007-04-18 08:32:01 51°11.56 2°45.429 15.9363 0.060151 0.358745 -2.871232
2007-04-18 08:32:06 51°11.561 2°45.427 15.6965 0.060151 0.358769 -2.871232
2007-04-18 08:32:11 51°11.562 2°45.425 15.751 0.060151 0.358777 -2.871232
2007-04-18 08:32:15 51°11.564 2°45.424 15.6502 0.060151 0.358777 -2.871232
2007-04-18 08:32:21 51°11.565 2°45.421 15.836 0.060151 0.358784 -2.871232
2007-04-18 08:32:26 51°11.566 2°45.419 15.4865 0.060151 0.358816 -2.871232
2007-04-18 08:32:31 51°11.567 2°45.417 15.7421 0.060151 0.358824 -2.871232
2007-04-18 08:32:35 51°11.568 2°45.415 15.6862 0.060151 0.35884 -2.871232
2007-04-18 08:32:41 51°11.569 2°45.412 15.6793 0.060151 0.35884 -2.871232
2007-04-18 08:32:46 51°11.57 2°45.409 15.6111 0.060151 0.35884 -2.871232
2007-04-18 08:32:51 51°11.571 2°45.407 16.04 0.060151 0.358855 -2.871232
2007-04-18 08:32:56 51°11.572 2°45.404 16.0015 0.060151 0.358871 -2.871232
2007-04-18 08:33:01 51°11.573 2°45.401 15.7749 0.060151 0.358879 -2.871232
2007-04-18 08:33:05 51°11.574 2°45.399 15.5565 0.060151 0.358887 -2.871232
2007-04-18 08:33:11 51°11.575 2°45.395 15.3216 0.060151 0.358926 -2.871232
2007-04-18 08:33:16 51°11.575 2°45.392 15.8123 0.060151 0.358926 -2.871232
2007-04-18 08:33:21 51°11.576 2°45.389 15.6242 0.060151 0.35895 -2.871232
2007-04-18 08:33:26 51°11.577 2°45.386 15.6389 0.060151 0.358997 -2.871232
2007-04-18 08:33:31 51°11.577 2°45.383 15.8509 0.060151 0.359036 -2.871232
2007-04-18 08:33:36 51°11.578 2°45.38 15.5331 0.060048 0.358425 -2.871232
2007-04-18 08:33:41 51°11.578 2°45.377 15.5656 0.060048 0.358449 -2.871232
2007-04-18 08:33:46 51°11.579 2°45.374 15.523 0.060048 0.358449 -2.871232
2007-04-18 08:33:50 51°11.58 2°45.371 15.4748 0.060151 0.359099 -2.871232
2007-04-18 08:33:56 51°11.58 2°45.367 15.5331 0.060151 0.359092 -2.871232
2007-04-18 08:34:01 51°11.58 2°45.364 15.5878 0.060151 0.359076 -2.871232
2007-04-18 08:34:06 51°11.581 2°45.36 15.5868 0.060048 0.358441 -2.871232
2007-04-18 08:34:11 51°11.581 2°45.357 15.7105 0.060048 0.358433 -2.871232
2007-04-18 08:34:15 51°11.581 2°45.354 15.4215 0.060048 0.358433 -2.871232
2007-04-18 08:34:21 51°11.582 2°45.35 15.5072 0.060048 0.358433 -2.871232
2007-04-18 08:34:26 51°11.582 2°45.347 15.4083 0.060048 0.358441 -2.871232
2007-04-18 08:34:31 51°11.583 2°45.344 15.6283 0.060048 0.358457 -2.871232
2007-04-18 08:34:35 51°11.583 2°45.341 15.7899 0.060048 0.358473 -2.871232
2007-04-18 08:34:41 51°11.583 2°45.337 16.401 0.060048 0.358496 -2.871232
2007-04-18 08:34:46 51°11.583 2°45.334 15.9904 0.060048 0.358496 -2.871232
2007-04-18 08:34:51 51°11.583 2°45.33 15.6457 0.060048 0.35852 -2.871232
2007-04-18 08:34:56 51°11.583 2°45.327 15.5012 0.060048 0.35852 -2.871232
2007-04-18 08:35:01 51°11.583 2°45.324 15.2095 0.060048 0.35852 -2.871232
2007-04-18 08:35:06 51°11.583 2°45.32 15.2672 0.060048 0.358512 -2.871232
2007-04-18 08:35:11 51°11.583 2°45.317 15.4099 0.060048 0.358512 -2.871232
2007-04-18 08:35:16 51°11.583 2°45.313 15.5246 0.060048 0.358512 -2.871232
2007-04-18 08:35:21 51°11.583 2°45.31 16.0449 0.060048 0.358512 -2.871232
2007-04-18 08:35:26 51°11.584 2°45.307 15.7544 0.060048 0.35852 -2.871232
2007-04-18 08:35:31 51°11.584 2°45.304 15.4883 0.060048 0.358528 -2.871232
2007-04-18 08:35:36 51°11.584 2°45.3 15.4388 0.060048 0.358528 -2.871232
2007-04-18 08:35:41 51°11.584 2°45.297 15.4508 0.060048 0.358528 -2.871232
2007-04-18 08:35:46 51°11.584 2°45.294 15.7648 0.060048 0.358528 -2.871232
2007-04-18 08:35:51 51°11.584 2°45.291 15.6785 0.060048 0.358543 -2.871232
2007-04-18 08:35:56 51°11.583 2°45.287 15.9209 0.060048 0.358551 -2.871232
2007-04-18 08:36:01 51°11.583 2°45.284 15.9895 0.059945 0.357932 -2.871232
2007-04-18 08:36:06 51°11.584 2°45.281 15.7336 0.060048 0.358583 -2.871232
2007-04-18 08:36:11 51°11.583 2°45.278 16.2885 0.059945 0.357987 -2.871232
2007-04-18 08:36:16 51°11.583 2°45.275 16.3374 0.059945 0.357987 -2.871232
2007-04-18 08:36:21 51°11.583 2°45.271 15.8326 0.059945 0.357987 -2.871232
2007-04-18 08:36:26 51°11.583 2°45.268 15.6422 0.060048 0.358614 -2.871232
2007-04-18 08:36:31 51°11.583 2°45.265 15.7798 0.060048 0.358614 -2.871232
2007-04-18 08:36:35 51°11.582 2°45.262 15.7167 0.059945 0.357979 -2.871232
2007-04-18 08:36:41 51°11.582 2°45.259 16.1777 0.060048 0.358614 -2.871232
2007-04-18 08:36:46 51°11.582 2°45.256 16.1313 0.060048 0.358614 -2.871232
2007-04-18 08:36:51 51°11.582 2°45.253 16.9121 0.059945 0.357979 -2.871232
2007-04-18 08:36:56 51°11.582 2°45.25 16.5826 0.059945 0.357987 -2.871232
2007-04-18 08:37:01 51°11.582 2°45.247 15.5759 0.059945 0.357995 -2.871232
2007-04-18 08:37:06 51°11.581 2°45.243 15.6902 0.059945 0.357995 -2.871232
2007-04-18 08:37:11 51°11.581 2°45.24 15.4318 0.059945 0.358003 -2.871232
2007-04-18 08:37:16 51°11.581 2°45.237 15.2876 0.059945 0.358003 -2.871232